Check out our new PWSWeather beta!
PWSweather.com
Personal Weather Stations
Station Observations

CheritonFolkestoneGB

Lat: 51.088, Lon: 1.135

Elevation: 156

Station Type: Maplin N96GY

http://www.ironeagleuk.co.uk/cumulus/index.htm

Latest ConditionsUpdated 6:39:00 PM GMT Monday, Feb 24, 2020
Currently Today's Max Today's Min Today's Average
Temperature 50.4°F10.2°C 50.4°F10.2°C 44.1°F6.7°C 47.9°F8.8°C
Dew Point 50.4°F10.2°C 50.4°F10.2°C 38.7°F3.7°C 47.0°F8.3°C
Winds 13.9 mph WSW22.4 kmh WSW 21.4 mph -34.4 kmh - - 11.6 mph 18.7 kmh
Wind Gusts 20.6 mph33.2 kmh 29.8 mph48.0 kmh - -
Humidity 100% 100% 78% 97%
Pressure 29.70 in1005.8 mb 30.26 in1024.7 mb 29.70 in1005.8 mb -
Precipitation - 0.33 in8.4 mm - -
Hour Temp Dew Point Humidity Winds Wind Gusts Pressure Precip Precip Rate Daily Precip Total
06:39 PM 50.4°F10.2°C 50.4°F10.2°C 100% 13.9 mph WSW22.4 kmh WSW 20.6 mph33.2 kmh 29.70 in1005.8 mb 0.00 in0.0 mm 0.00 in0.0 mm 0.33 in8.4 mm
06:36 PM 50.4°F10.2°C 50.4°F10.2°C 100% 13.8 mph SW22.2 kmh SW 20.6 mph33.2 kmh 29.70 in1005.8 mb 0.00 in0.0 mm 0.00 in0.0 mm 0.33 in8.4 mm
06:33 PM 50.4°F10.2°C 50.4°F10.2°C 100% 14.3 mph SW23.0 kmh SW 20.6 mph33.2 kmh 29.70 in1005.8 mb 0.00 in0.0 mm 0.00 in0.0 mm 0.33 in8.4 mm
06:30 PM 50.4°F10.2°C 50.4°F10.2°C 100% 13.4 mph SSW21.6 kmh SSW 17.4 mph28.0 kmh 29.70 in1005.8 mb 0.00 in0.0 mm 0.00 in0.0 mm 0.33 in8.4 mm
06:27 PM 50.4°F10.2°C 50.4°F10.2°C 100% 12.5 mph SSW20.1 kmh SSW 17.4 mph28.0 kmh 29.70 in1005.8 mb 0.00 in0.0 mm 0.00 in0.0 mm 0.33 in8.4 mm
06:24 PM 50.4°F10.2°C 50.4°F10.2°C 100% 12.2 mph SW19.6 kmh SW 17.4 mph28.0 kmh 29.70 in1005.8 mb 0.00 in0.0 mm 0.00 in0.0 mm 0.33 in8.4 mm
06:21 PM 50.4°F10.2°C 50.4°F10.2°C 100% 11.8 mph SW19.0 kmh SW 17.4 mph28.0 kmh 29.70 in1005.8 mb 0.00 in0.0 mm 0.00 in0.0 mm 0.33 in8.4 mm
06:18 PM 50.4°F10.2°C 50.4°F10.2°C 100% 12.8 mph SW20.6 kmh SW 17.4 mph28.0 kmh 29.71 in1006.1 mb 0.00 in0.0 mm 0.00 in0.0 mm 0.33 in8.4 mm
06:15 PM 50.4°F10.2°C 50.4°F10.2°C 100% 14.3 mph SW23.0 kmh SW 23.5 mph37.8 kmh 29.71 in1006.1 mb 0.00 in0.0 mm 0.00 in0.0 mm 0.33 in8.4 mm
06:12 PM 50.4°F10.2°C 50.4°F10.2°C 100% 14.8 mph SW23.8 kmh SW 23.5 mph37.8 kmh 29.71 in1006.1 mb 0.00 in0.0 mm 0.00 in0.0 mm 0.33 in8.4 mm
06:09 PM 50.4°F10.2°C 50.4°F10.2°C 100% 13.7 mph SW22.0 kmh SW 23.5 mph37.8 kmh 29.71 in1006.1 mb 0.00 in0.0 mm 0.00 in0.0 mm 0.33 in8.4 mm
06:06 PM 50.4°F10.2°C 50.4°F10.2°C 100% 13.0 mph SW20.9 kmh SW 23.5 mph37.8 kmh 29.71 in1006.1 mb 0.00 in0.0 mm 0.00 in0.0 mm 0.33 in8.4 mm
06:03 PM 50.4°F10.2°C 50.4°F10.2°C 100% 12.0 mph WSW19.3 kmh WSW 15.2 mph24.5 kmh 29.71 in1006.1 mb 0.00 in0.0 mm 0.00 in0.0 mm 0.33 in8.4 mm
06:00 PM 50.4°F10.2°C 50.4°F10.2°C 100% 13.1 mph SW21.1 kmh SW 20.6 mph33.2 kmh 29.71 in1006.1 mb 0.00 in0.0 mm 0.00 in0.0 mm 0.33 in8.4 mm
05:57 PM 50.4°F10.2°C 50.4°F10.2°C 100% 13.1 mph SW21.1 kmh SW 20.6 mph33.2 kmh 29.71 in1006.1 mb 0.00 in0.0 mm 0.00 in0.0 mm 0.33 in8.4 mm
05:54 PM 50.4°F10.2°C 50.4°F10.2°C 100% 13.6 mph SW21.9 kmh SW 20.6 mph33.2 kmh 29.71 in1006.1 mb 0.00 in0.0 mm 0.00 in0.0 mm 0.33 in8.4 mm
05:51 PM 50.4°F10.2°C 50.4°F10.2°C 100% 15.2 mph SW24.5 kmh SW 26.6 mph42.8 kmh 29.71 in1006.1 mb 0.00 in0.0 mm 0.00 in0.0 mm 0.33 in8.4 mm
05:48 PM 50.2°F10.1°C 50.2°F10.1°C 100% 16.8 mph SW27.0 kmh SW 26.6 mph42.8 kmh 29.70 in1005.8 mb 0.00 in0.0 mm 0.00 in0.0 mm 0.33 in8.4 mm
05:45 PM 50.2°F10.1°C 50.2°F10.1°C 100% 17.2 mph SSW27.7 kmh SSW 26.6 mph42.8 kmh 29.71 in1006.1 mb 0.00 in0.0 mm 0.00 in0.0 mm 0.33 in8.4 mm
05:42 PM 50.2°F10.1°C 50.2°F10.1°C 100% 16.2 mph SW26.1 kmh SW 26.6 mph42.8 kmh 29.71 in1006.1 mb 0.00 in0.0 mm 0.00 in0.0 mm 0.33 in8.4 mm
05:39 PM 50.2°F10.1°C 50.2°F10.1°C 100% 15.7 mph WSW25.3 kmh WSW 22.8 mph36.7 kmh 29.71 in1006.1 mb 0.00 in0.0 mm 0.00 in0.0 mm 0.33 in8.4 mm
05:36 PM 50.2°F10.1°C 50.2°F10.1°C 100% 15.7 mph SW25.3 kmh SW 22.8 mph36.7 kmh 29.71 in1006.1 mb 0.00 in0.0 mm 0.00 in0.0 mm 0.33 in8.4 mm
05:33 PM 50.2°F10.1°C 50.2°F10.1°C 100% 15.6 mph SW25.1 kmh SW 22.8 mph36.7 kmh 29.71 in1006.1 mb 0.00 in0.0 mm 0.00 in0.0 mm 0.33 in8.4 mm
05:30 PM 50.2°F10.1°C 50.2°F10.1°C 100% 13.8 mph SW22.2 kmh SW 19.7 mph31.7 kmh 29.71 in1006.1 mb 0.00 in0.0 mm 0.00 in0.0 mm 0.33 in8.4 mm
05:27 PM 50.2°F10.1°C 50.2°F10.1°C 100% 12.1 mph SW19.5 kmh SW 17.4 mph28.0 kmh 29.71 in1006.1 mb 0.00 in0.0 mm 0.00 in0.0 mm 0.33 in8.4 mm
05:24 PM 50.2°F10.1°C 50.2°F10.1°C 100% 12.9 mph SW20.8 kmh SW 17.4 mph28.0 kmh 29.71 in1006.1 mb 0.00 in0.0 mm 0.00 in0.0 mm 0.33 in8.4 mm
05:21 PM 50.0°F10.0°C 50.0°F10.0°C 100% 13.6 mph SW21.9 kmh SW 22.1 mph35.6 kmh 29.70 in1005.8 mb 0.00 in0.0 mm 0.00 in0.0 mm 0.33 in8.4 mm
05:18 PM 50.0°F10.0°C 50.0°F10.0°C 100% 14.3 mph SW23.0 kmh SW 22.1 mph35.6 kmh 29.71 in1006.1 mb 0.00 in0.0 mm 0.00 in0.0 mm 0.33 in8.4 mm
05:15 PM 50.0°F10.0°C 50.0°F10.0°C 100% 15.3 mph SW24.6 kmh SW 22.1 mph35.6 kmh 29.71 in1006.1 mb 0.00 in0.0 mm 0.00 in0.0 mm 0.33 in8.4 mm
05:12 PM 50.0°F10.0°C 50.0°F10.0°C 100% 14.6 mph SW23.5 kmh SW 19.7 mph31.7 kmh 29.70 in1005.8 mb 0.00 in0.0 mm 0.00 in0.0 mm 0.33 in8.4 mm
05:09 PM 50.0°F10.0°C 50.0°F10.0°C 100% 15.0 mph SW24.1 kmh SW 19.7 mph31.7 kmh 29.71 in1006.1 mb 0.00 in0.0 mm 0.00 in0.0 mm 0.33 in8.4 mm
05:06 PM 50.0°F10.0°C 50.0°F10.0°C 100% 15.1 mph SW24.3 kmh SW 19.7 mph31.7 kmh 29.71 in1006.1 mb 0.00 in0.0 mm 0.00 in0.0 mm 0.33 in8.4 mm
05:03 PM 50.0°F10.0°C 50.0°F10.0°C 100% 14.2 mph SW22.9 kmh SW 19.0 mph30.6 kmh 29.71 in1006.1 mb 0.00 in0.0 mm 0.00 in0.0 mm 0.33 in8.4 mm
05:00 PM 49.8°F9.9°C 49.8°F9.9°C 100% 14.4 mph S23.2 kmh S 19.0 mph30.6 kmh 29.71 in1006.1 mb 0.00 in0.0 mm 0.00 in0.0 mm 0.33 in8.4 mm
04:57 PM 49.8°F9.9°C 49.8°F9.9°C 100% 14.4 mph S23.2 kmh S 19.0 mph30.6 kmh 29.72 in1006.4 mb 0.00 in0.0 mm 0.00 in0.0 mm 0.33 in8.4 mm
04:54 PM 49.6°F9.8°C 49.6°F9.8°C 100% 14.5 mph S23.3 kmh S 19.7 mph31.7 kmh 29.71 in1006.1 mb 0.00 in0.0 mm 0.00 in0.0 mm 0.33 in8.4 mm
04:51 PM 49.6°F9.8°C 49.6°F9.8°C 100% 14.2 mph SSW22.9 kmh SSW 19.7 mph31.7 kmh 29.71 in1006.1 mb 0.00 in0.0 mm 0.00 in0.0 mm 0.33 in8.4 mm
04:48 PM 49.6°F9.8°C 49.6°F9.8°C 100% 13.9 mph SSW22.4 kmh SSW 19.7 mph31.7 kmh 29.71 in1006.1 mb 0.00 in0.0 mm 0.00 in0.0 mm 0.33 in8.4 mm
04:45 PM 49.6°F9.8°C 49.6°F9.8°C 100% 14.7 mph SSW23.7 kmh SSW 22.1 mph35.6 kmh 29.71 in1006.1 mb 0.00 in0.0 mm 0.00 in0.0 mm 0.33 in8.4 mm
04:42 PM 49.5°F9.7°C 49.5°F9.7°C 100% 15.4 mph SSW24.8 kmh SSW 22.1 mph35.6 kmh 29.71 in1006.1 mb 0.00 in0.0 mm 0.00 in0.0 mm 0.33 in8.4 mm
04:39 PM 49.5°F9.7°C 49.5°F9.7°C 100% 17.4 mph SSW28.0 kmh SSW 28.2 mph45.4 kmh 29.71 in1006.1 mb 0.00 in0.0 mm 0.00 in0.0 mm 0.33 in8.4 mm
04:36 PM 49.5°F9.7°C 49.5°F9.7°C 100% 19.4 mph SSW31.2 kmh SSW 28.2 mph45.4 kmh 29.71 in1006.1 mb 0.00 in0.0 mm 0.00 in0.0 mm 0.33 in8.4 mm
04:33 PM 49.5°F9.7°C 49.5°F9.7°C 100% 18.6 mph SW29.9 kmh SW 28.2 mph45.4 kmh 29.71 in1006.1 mb 0.00 in0.0 mm 0.00 in0.0 mm 0.33 in8.4 mm
04:30 PM 49.5°F9.7°C 49.5°F9.7°C 100% 18.1 mph SSW29.1 kmh SSW 28.2 mph45.4 kmh 29.71 in1006.1 mb 0.00 in0.0 mm 0.00 in0.0 mm 0.33 in8.4 mm
04:27 PM 49.5°F9.7°C 49.5°F9.7°C 100% 16.6 mph SW26.7 kmh SW 22.8 mph36.7 kmh 29.70 in1005.8 mb 0.00 in0.0 mm 0.00 in0.0 mm 0.33 in8.4 mm
04:24 PM 49.5°F9.7°C 49.5°F9.7°C 100% 14.6 mph SW23.5 kmh SW 22.1 mph35.6 kmh 29.70 in1005.8 mb 0.00 in0.0 mm 0.00 in0.0 mm 0.33 in8.4 mm
04:21 PM 49.5°F9.7°C 49.5°F9.7°C 100% 13.6 mph SW21.9 kmh SW 19.0 mph30.6 kmh 29.71 in1006.1 mb 0.01 in0.3 mm 0.00 in0.0 mm 0.33 in8.4 mm
04:18 PM 49.5°F9.7°C 49.5°F9.7°C 100% 13.2 mph SW21.2 kmh SW 16.8 mph27.0 kmh 29.71 in1006.1 mb 0.01 in0.3 mm 0.00 in0.0 mm 0.33 in8.4 mm
04:15 PM 49.5°F9.7°C 49.5°F9.7°C 100% 13.6 mph SW21.9 kmh SW 19.7 mph31.7 kmh 29.71 in1006.1 mb 0.01 in0.3 mm 0.00 in0.0 mm 0.33 in8.4 mm
04:12 PM 49.5°F9.7°C 49.5°F9.7°C 100% 14.0 mph SSW22.5 kmh SSW 20.6 mph33.2 kmh 29.71 in1006.1 mb 0.02 in0.5 mm 0.00 in0.0 mm 0.33 in8.4 mm
04:09 PM 49.5°F9.7°C 49.5°F9.7°C 100% 13.9 mph SW22.4 kmh SW 20.6 mph33.2 kmh 29.72 in1006.4 mb 0.02 in0.5 mm 0.00 in0.0 mm 0.33 in8.4 mm
04:06 PM 49.5°F9.7°C 49.5°F9.7°C 100% 14.6 mph SSW23.5 kmh SSW 20.6 mph33.2 kmh 29.72 in1006.4 mb 0.02 in0.5 mm 0.00 in0.0 mm 0.33 in8.4 mm
04:03 PM 49.5°F9.7°C 49.5°F9.7°C 100% 15.0 mph SW24.1 kmh SW 19.7 mph31.7 kmh 29.73 in1006.8 mb 0.04 in1.0 mm 0.00 in0.0 mm 0.33 in8.4 mm
04:00 PM 49.5°F9.7°C 49.5°F9.7°C 100% 15.3 mph SW24.6 kmh SW 19.7 mph31.7 kmh 29.73 in1006.8 mb 0.05 in1.3 mm 0.00 in0.0 mm 0.33 in8.4 mm
03:57 PM 49.5°F9.7°C 49.5°F9.7°C 100% 14.4 mph SW23.2 kmh SW 19.0 mph30.6 kmh 29.72 in1006.4 mb 0.05 in1.3 mm 0.00 in0.0 mm 0.33 in8.4 mm
03:54 PM 49.5°F9.7°C 49.5°F9.7°C 100% 13.5 mph SW21.7 kmh SW 19.7 mph31.7 kmh 29.73 in1006.8 mb 0.05 in1.3 mm 0.00 in0.0 mm 0.33 in8.4 mm
03:51 PM 49.5°F9.7°C 49.5°F9.7°C 100% 14.5 mph SW23.3 kmh SW 23.5 mph37.8 kmh 29.74 in1007.1 mb 0.06 in1.5 mm 0.00 in0.0 mm 0.33 in8.4 mm
03:48 PM 49.5°F9.7°C 49.5°F9.7°C 100% 14.4 mph SW23.2 kmh SW 23.5 mph37.8 kmh 29.73 in1006.8 mb 0.06 in1.5 mm 0.00 in0.0 mm 0.33 in8.4 mm
03:45 PM 49.5°F9.7°C 49.5°F9.7°C 100% 14.7 mph SW23.7 kmh SW 23.5 mph37.8 kmh 29.73 in1006.8 mb 0.06 in1.5 mm 0.00 in0.0 mm 0.33 in8.4 mm
03:42 PM 49.5°F9.7°C 49.5°F9.7°C 100% 15.5 mph SW24.9 kmh SW 22.1 mph35.6 kmh 29.74 in1007.1 mb 0.07 in1.8 mm 0.00 in0.0 mm 0.33 in8.4 mm
03:39 PM 49.5°F9.7°C 49.5°F9.7°C 100% 16.3 mph SW26.2 kmh SW 22.1 mph35.6 kmh 29.73 in1006.8 mb 0.08 in2.0 mm 0.00 in0.0 mm 0.33 in8.4 mm
03:36 PM 49.5°F9.7°C 49.5°F9.7°C 100% 17.3 mph SSW27.8 kmh SSW 22.1 mph35.6 kmh 29.73 in1006.8 mb 0.08 in2.0 mm 0.00 in0.0 mm 0.33 in8.4 mm
03:33 PM 49.3°F9.6°C 49.3°F9.6°C 100% 17.6 mph SSW28.3 kmh SSW 22.1 mph35.6 kmh 29.74 in1007.1 mb 0.08 in2.0 mm 0.00 in0.0 mm 0.33 in8.4 mm
03:30 PM 49.3°F9.6°C 49.3°F9.6°C 100% 17.8 mph S28.6 kmh S 19.7 mph31.7 kmh 29.74 in1007.1 mb 0.09 in2.3 mm 0.00 in0.0 mm 0.33 in8.4 mm
03:27 PM 49.3°F9.6°C 49.3°F9.6°C 100% 17.4 mph SW28.0 kmh SW 19.7 mph31.7 kmh 29.73 in1006.8 mb 0.09 in2.3 mm 0.00 in0.0 mm 0.33 in8.4 mm
03:24 PM 49.3°F9.6°C 49.3°F9.6°C 100% 16.8 mph SW27.0 kmh SW 19.0 mph30.6 kmh 29.74 in1007.1 mb 0.09 in2.3 mm 0.20 in5.1 mm 0.33 in8.4 mm
03:21 PM 49.3°F9.6°C 49.3°F9.6°C 100% 15.5 mph SW24.9 kmh SW 19.7 mph31.7 kmh 29.73 in1006.8 mb 0.08 in2.0 mm 0.00 in0.0 mm 0.32 in8.1 mm
03:18 PM 49.3°F9.6°C 49.3°F9.6°C 100% 14.3 mph SW23.0 kmh SW 19.7 mph31.7 kmh 29.73 in1006.8 mb 0.08 in2.0 mm 0.00 in0.0 mm 0.32 in8.1 mm
03:15 PM 49.5°F9.7°C 49.5°F9.7°C 100% 13.1 mph SW21.1 kmh SW 19.7 mph31.7 kmh 29.74 in1007.1 mb 0.08 in2.0 mm 0.00 in0.0 mm 0.32 in8.1 mm
03:12 PM 49.5°F9.7°C 49.5°F9.7°C 100% 11.7 mph SSW18.8 kmh SSW 18.3 mph29.5 kmh 29.74 in1007.1 mb 0.08 in2.0 mm 0.00 in0.0 mm 0.31 in7.9 mm
03:09 PM 49.5°F9.7°C 49.5°F9.7°C 100% 12.6 mph SW20.3 kmh SW 18.3 mph29.5 kmh 29.75 in1007.5 mb 0.08 in2.0 mm 0.00 in0.0 mm 0.31 in7.9 mm
03:06 PM 49.5°F9.7°C 49.5°F9.7°C 100% 15.8 mph SSW25.4 kmh SSW 25.1 mph40.4 kmh 29.75 in1007.5 mb 0.08 in2.0 mm 0.20 in5.1 mm 0.31 in7.9 mm
03:03 PM 49.5°F9.7°C 49.5°F9.7°C 100% 17.8 mph SSW28.6 kmh SSW 25.1 mph40.4 kmh 29.76 in1007.8 mb 0.07 in1.8 mm 0.20 in5.1 mm 0.30 in7.6 mm
03:00 PM 49.5°F9.7°C 49.5°F9.7°C 100% 17.6 mph S28.3 kmh S 25.1 mph40.4 kmh 29.76 in1007.8 mb 0.06 in1.5 mm 0.00 in0.0 mm 0.28 in7.1 mm
02:57 PM 49.5°F9.7°C 49.5°F9.7°C 100% 16.2 mph SSW26.1 kmh SSW 24.4 mph39.3 kmh 29.76 in1007.8 mb 0.06 in1.5 mm 0.00 in0.0 mm 0.28 in7.1 mm
02:54 PM 49.5°F9.7°C 49.5°F9.7°C 100% 16.1 mph SW25.9 kmh SW 23.5 mph37.8 kmh 29.77 in1008.1 mb 0.06 in1.5 mm 0.20 in5.1 mm 0.28 in7.1 mm
02:51 PM 49.5°F9.7°C 49.5°F9.7°C 100% 16.8 mph SW27.0 kmh SW 25.9 mph41.7 kmh 29.76 in1007.8 mb 0.05 in1.3 mm 0.00 in0.0 mm 0.27 in6.9 mm
02:48 PM 49.5°F9.7°C 49.5°F9.7°C 100% 16.2 mph SW26.1 kmh SW 25.9 mph41.7 kmh 29.76 in1007.8 mb 0.06 in1.5 mm 0.20 in5.1 mm 0.27 in6.9 mm
02:45 PM 49.5°F9.7°C 49.5°F9.7°C 100% 14.8 mph SW23.8 kmh SW 25.9 mph41.7 kmh 29.76 in1007.8 mb 0.05 in1.3 mm 0.00 in0.0 mm 0.26 in6.6 mm
02:42 PM 49.5°F9.7°C 49.5°F9.7°C 100% 13.8 mph SW22.2 kmh SW 25.9 mph41.7 kmh 29.76 in1007.8 mb 0.05 in1.3 mm 0.20 in5.1 mm 0.26 in6.6 mm
02:39 PM 49.5°F9.7°C 49.5°F9.7°C 100% 14.2 mph SSW22.9 kmh SSW 22.1 mph35.6 kmh 29.77 in1008.1 mb 0.04 in1.0 mm 0.00 in0.0 mm 0.25 in6.4 mm
02:36 PM 49.5°F9.7°C 49.5°F9.7°C 100% 14.2 mph SSW22.9 kmh SSW 22.1 mph35.6 kmh 29.77 in1008.1 mb 0.04 in1.0 mm 0.00 in0.0 mm 0.25 in6.4 mm
02:33 PM 49.5°F9.7°C 49.5°F9.7°C 100% 15.0 mph SW24.1 kmh SW 24.4 mph39.3 kmh 29.77 in1008.1 mb 0.04 in1.0 mm 0.00 in0.0 mm 0.25 in6.4 mm
02:30 PM 49.5°F9.7°C 49.5°F9.7°C 100% 16.1 mph SW25.9 kmh SW 24.4 mph39.3 kmh 29.77 in1008.1 mb 0.04 in1.0 mm 0.00 in0.0 mm 0.24 in6.1 mm
02:27 PM 49.5°F9.7°C 49.5°F9.7°C 100% 16.0 mph SW25.7 kmh SW 24.4 mph39.3 kmh 29.77 in1008.1 mb 0.04 in1.0 mm 0.00 in0.0 mm 0.24 in6.1 mm
02:24 PM 49.5°F9.7°C 49.5°F9.7°C 100% 15.7 mph SW25.3 kmh SW 22.8 mph36.7 kmh 29.77 in1008.1 mb 0.04 in1.0 mm 0.00 in0.0 mm 0.24 in6.1 mm
02:21 PM 49.5°F9.7°C 49.5°F9.7°C 100% 15.4 mph SW24.8 kmh SW 22.1 mph35.6 kmh 29.78 in1008.5 mb 0.04 in1.0 mm 0.00 in0.0 mm 0.24 in6.1 mm
02:18 PM 49.5°F9.7°C 49.5°F9.7°C 100% 15.0 mph SW24.1 kmh SW 19.0 mph30.6 kmh 29.78 in1008.5 mb 0.04 in1.0 mm 0.00 in0.0 mm 0.24 in6.1 mm
02:15 PM 49.5°F9.7°C 49.5°F9.7°C 100% 15.7 mph SW25.3 kmh SW 19.0 mph30.6 kmh 29.78 in1008.5 mb 0.04 in1.0 mm 0.40 in10.2 mm 0.24 in6.1 mm
02:12 PM 49.5°F9.7°C 49.5°F9.7°C 100% 15.6 mph SW25.1 kmh SW 19.0 mph30.6 kmh 29.78 in1008.5 mb 0.02 in0.5 mm 0.00 in0.0 mm 0.22 in5.6 mm
02:09 PM 49.5°F9.7°C 49.5°F9.7°C 100% 16.7 mph SW26.9 kmh SW 21.3 mph34.3 kmh 29.78 in1008.5 mb 0.02 in0.5 mm 0.00 in0.0 mm 0.22 in5.6 mm
02:06 PM 49.5°F9.7°C 49.5°F9.7°C 100% 16.6 mph SSW26.7 kmh SSW 21.3 mph34.3 kmh 29.78 in1008.5 mb 0.02 in0.5 mm 0.00 in0.0 mm 0.22 in5.6 mm
02:03 PM 49.5°F9.7°C 49.5°F9.7°C 100% 18.4 mph SSW29.6 kmh SSW 24.4 mph39.3 kmh 29.78 in1008.5 mb 0.02 in0.5 mm 0.00 in0.0 mm 0.22 in5.6 mm
02:00 PM 49.5°F9.7°C 49.5°F9.7°C 100% 18.2 mph SW29.3 kmh SW 24.4 mph39.3 kmh 29.79 in1008.8 mb 0.04 in1.0 mm 0.00 in0.0 mm 0.22 in5.6 mm
01:57 PM 49.5°F9.7°C 49.5°F9.7°C 100% 17.9 mph SW28.8 kmh SW 24.4 mph39.3 kmh 29.78 in1008.5 mb 0.04 in1.0 mm 0.00 in0.0 mm 0.22 in5.6 mm
01:54 PM 49.5°F9.7°C 49.5°F9.7°C 100% 16.8 mph SW27.0 kmh SW 24.4 mph39.3 kmh 29.78 in1008.5 mb 0.04 in1.0 mm 0.00 in0.0 mm 0.22 in5.6 mm
01:51 PM 49.5°F9.7°C 49.5°F9.7°C 100% 15.5 mph SSW24.9 kmh SSW 24.4 mph39.3 kmh 29.78 in1008.5 mb 0.04 in1.0 mm 0.40 in10.2 mm 0.22 in5.6 mm
01:48 PM 49.5°F9.7°C 49.5°F9.7°C 100% 15.6 mph SW25.1 kmh SW 24.4 mph39.3 kmh 29.79 in1008.8 mb 0.02 in0.5 mm 0.00 in0.0 mm 0.21 in5.3 mm
01:45 PM 49.5°F9.7°C 49.5°F9.7°C 100% 16.4 mph SW26.4 kmh SW 24.4 mph39.3 kmh 29.78 in1008.5 mb 0.02 in0.5 mm 0.00 in0.0 mm 0.21 in5.3 mm
01:42 PM 49.5°F9.7°C 49.5°F9.7°C 100% 15.1 mph SW24.3 kmh SW 19.0 mph30.6 kmh 29.79 in1008.8 mb 0.02 in0.5 mm 0.00 in0.0 mm 0.21 in5.3 mm
01:39 PM 49.5°F9.7°C 49.5°F9.7°C 100% 15.7 mph SW25.3 kmh SW 19.0 mph30.6 kmh 29.79 in1008.8 mb 0.02 in0.5 mm 0.00 in0.0 mm 0.21 in5.3 mm
01:36 PM 49.5°F9.7°C 49.5°F9.7°C 100% 16.0 mph SW25.7 kmh SW 24.4 mph39.3 kmh 29.79 in1008.8 mb 0.02 in0.5 mm 0.00 in0.0 mm 0.21 in5.3 mm
01:33 PM 49.5°F9.7°C 49.5°F9.7°C 100% 17.1 mph SW27.5 kmh SW 24.4 mph39.3 kmh 29.79 in1008.8 mb 0.02 in0.5 mm 0.20 in5.1 mm 0.21 in5.3 mm
01:30 PM 49.5°F9.7°C 49.5°F9.7°C 100% 17.1 mph SW27.5 kmh SW 24.4 mph39.3 kmh 29.79 in1008.8 mb 0.01 in0.3 mm 0.00 in0.0 mm 0.20 in5.1 mm
01:27 PM 49.5°F9.7°C 49.5°F9.7°C 100% 16.3 mph SW26.2 kmh SW 22.1 mph35.6 kmh 29.80 in1009.1 mb 0.01 in0.3 mm 0.00 in0.0 mm 0.20 in5.1 mm
01:24 PM 49.5°F9.7°C 49.5°F9.7°C 100% 16.6 mph SW26.7 kmh SW 22.1 mph35.6 kmh 29.79 in1008.8 mb 0.01 in0.3 mm 0.00 in0.0 mm 0.20 in5.1 mm
01:21 PM 49.5°F9.7°C 49.5°F9.7°C 100% 17.2 mph SW27.7 kmh SW 24.4 mph39.3 kmh 29.80 in1009.1 mb 0.01 in0.3 mm 0.00 in0.0 mm 0.20 in5.1 mm
01:18 PM 49.5°F9.7°C 49.5°F9.7°C 100% 17.8 mph SW28.6 kmh SW 24.4 mph39.3 kmh 29.79 in1008.8 mb 0.01 in0.3 mm 0.00 in0.0 mm 0.20 in5.1 mm
01:15 PM 49.5°F9.7°C 49.5°F9.7°C 100% 19.1 mph SW30.7 kmh SW 25.1 mph40.4 kmh 29.79 in1008.8 mb 0.01 in0.3 mm 0.00 in0.0 mm 0.20 in5.1 mm
01:12 PM 49.5°F9.7°C 49.5°F9.7°C 100% 20.1 mph SW32.3 kmh SW 26.6 mph42.8 kmh 29.80 in1009.1 mb 0.01 in0.3 mm 0.00 in0.0 mm 0.20 in5.1 mm
01:09 PM 49.5°F9.7°C 49.5°F9.7°C 100% 20.9 mph SSW33.6 kmh SSW 27.3 mph43.9 kmh 29.79 in1008.8 mb 0.01 in0.3 mm 0.00 in0.0 mm 0.20 in5.1 mm
01:06 PM 49.5°F9.7°C 49.5°F9.7°C 100% 20.8 mph SSW33.5 kmh SSW 27.3 mph43.9 kmh 29.80 in1009.1 mb 0.01 in0.3 mm 0.00 in0.0 mm 0.20 in5.1 mm
01:03 PM 49.5°F9.7°C 49.5°F9.7°C 100% 18.7 mph SSW30.1 kmh SSW 27.3 mph43.9 kmh 29.80 in1009.1 mb 0.01 in0.3 mm 0.20 in5.1 mm 0.20 in5.1 mm
01:00 PM 49.5°F9.7°C 49.5°F9.7°C 100% 17.0 mph SW27.4 kmh SW 22.1 mph35.6 kmh 29.79 in1008.8 mb 0.00 in0.0 mm 0.00 in0.0 mm 0.19 in4.8 mm
12:57 PM 49.6°F9.8°C 49.6°F9.8°C 100% 15.6 mph SW25.1 kmh SW 20.6 mph33.2 kmh 29.80 in1009.1 mb 0.00 in0.0 mm 0.00 in0.0 mm 0.19 in4.8 mm
12:54 PM 49.5°F9.7°C 49.5°F9.7°C 100% 17.3 mph SW27.8 kmh SW 29.8 mph48.0 kmh 29.80 in1009.1 mb 0.00 in0.0 mm 0.00 in0.0 mm 0.19 in4.8 mm
12:51 PM 49.6°F9.8°C 49.6°F9.8°C 100% 17.8 mph SW28.6 kmh SW 29.8 mph48.0 kmh 29.80 in1009.1 mb 0.00 in0.0 mm 0.00 in0.0 mm 0.19 in4.8 mm
12:48 PM 49.6°F9.8°C 49.6°F9.8°C 100% 18.8 mph SW30.3 kmh SW 29.8 mph48.0 kmh 29.80 in1009.1 mb 0.00 in0.0 mm 0.00 in0.0 mm 0.19 in4.8 mm
12:45 PM 49.6°F9.8°C 49.6°F9.8°C 100% 18.4 mph SW29.6 kmh SW 29.8 mph48.0 kmh 29.80 in1009.1 mb 0.00 in0.0 mm 0.00 in0.0 mm 0.19 in4.8 mm
12:42 PM 49.6°F9.8°C 49.6°F9.8°C 100% 17.2 mph SW27.7 kmh SW 21.3 mph34.3 kmh 29.80 in1009.1 mb 0.00 in0.0 mm 0.00 in0.0 mm 0.19 in4.8 mm
12:39 PM 49.6°F9.8°C 49.6°F9.8°C 100% 17.2 mph SW27.7 kmh SW 24.4 mph39.3 kmh 29.80 in1009.1 mb 0.00 in0.0 mm 0.00 in0.0 mm 0.19 in4.8 mm
12:36 PM 49.6°F9.8°C 49.6°F9.8°C 100% 17.7 mph SW28.5 kmh SW 24.4 mph39.3 kmh 29.80 in1009.1 mb 0.00 in0.0 mm 0.00 in0.0 mm 0.19 in4.8 mm
12:33 PM 49.6°F9.8°C 49.6°F9.8°C 100% 16.8 mph SW27.0 kmh SW 24.4 mph39.3 kmh 29.81 in1009.5 mb 0.01 in0.3 mm 0.00 in0.0 mm 0.19 in4.8 mm
12:30 PM 49.6°F9.8°C 49.6°F9.8°C 100% 17.8 mph SW28.6 kmh SW 24.4 mph39.3 kmh 29.81 in1009.5 mb 0.01 in0.3 mm 0.00 in0.0 mm 0.19 in4.8 mm
12:27 PM 49.8°F9.9°C 49.8°F9.9°C 100% 16.8 mph SW27.0 kmh SW 20.6 mph33.2 kmh 29.82 in1009.8 mb 0.01 in0.3 mm 0.00 in0.0 mm 0.19 in4.8 mm
12:24 PM 49.8°F9.9°C 49.8°F9.9°C 100% 18.0 mph SW29.0 kmh SW 22.1 mph35.6 kmh 29.82 in1009.8 mb 0.01 in0.3 mm 0.00 in0.0 mm 0.19 in4.8 mm
12:21 PM 49.8°F9.9°C 49.8°F9.9°C 100% 18.1 mph SSW29.1 kmh SSW 22.1 mph35.6 kmh 29.82 in1009.8 mb 0.01 in0.3 mm 0.00 in0.0 mm 0.19 in4.8 mm
12:18 PM 49.8°F9.9°C 49.8°F9.9°C 100% 18.0 mph SSW29.0 kmh SSW 22.1 mph35.6 kmh 29.82 in1009.8 mb 0.01 in0.3 mm 0.00 in0.0 mm 0.19 in4.8 mm
12:15 PM 49.8°F9.9°C 49.8°F9.9°C 100% 16.4 mph SSW26.4 kmh SSW 22.1 mph35.6 kmh 29.82 in1009.8 mb 0.01 in0.3 mm 0.00 in0.0 mm 0.19 in4.8 mm
12:12 PM 49.8°F9.9°C 49.8°F9.9°C 100% 15.8 mph SW25.4 kmh SW 22.1 mph35.6 kmh 29.82 in1009.8 mb 0.01 in0.3 mm 0.00 in0.0 mm 0.19 in4.8 mm
12:09 PM 50.0°F10.0°C 50.0°F10.0°C 100% 16.3 mph SW26.2 kmh SW 22.1 mph35.6 kmh 29.82 in1009.8 mb 0.01 in0.3 mm 0.00 in0.0 mm 0.19 in4.8 mm
12:06 PM 50.0°F10.0°C 50.0°F10.0°C 100% 17.9 mph SSW28.8 kmh SSW 22.1 mph35.6 kmh 29.83 in1010.2 mb 0.01 in0.3 mm 0.00 in0.0 mm 0.19 in4.8 mm
12:03 PM 50.0°F10.0°C 50.0°F10.0°C 100% 19.9 mph SSW32.0 kmh SSW 25.9 mph41.7 kmh 29.83 in1010.2 mb 0.01 in0.3 mm 0.00 in0.0 mm 0.19 in4.8 mm
12:00 PM 50.0°F10.0°C 50.0°F10.0°C 100% 20.5 mph SSW33.0 kmh SSW 25.9 mph41.7 kmh 29.83 in1010.2 mb 0.01 in0.3 mm 0.00 in0.0 mm 0.19 in4.8 mm
11:57 AM 50.0°F10.0°C 50.0°F10.0°C 100% 20.9 mph SW33.6 kmh SW 25.9 mph41.7 kmh 29.84 in1010.5 mb 0.01 in0.3 mm 0.00 in0.0 mm 0.19 in4.8 mm
11:54 AM 50.0°F10.0°C 50.0°F10.0°C 100% 21.4 mph SW34.4 kmh SW 25.9 mph41.7 kmh 29.84 in1010.5 mb 0.01 in0.3 mm 0.00 in0.0 mm 0.19 in4.8 mm
11:51 AM 50.0°F10.0°C 50.0°F10.0°C 100% 20.8 mph SW33.5 kmh SW 25.9 mph41.7 kmh 29.84 in1010.5 mb 0.01 in0.3 mm 0.00 in0.0 mm 0.19 in4.8 mm
11:48 AM 50.0°F10.0°C 50.0°F10.0°C 100% 19.7 mph SW31.7 kmh SW 25.9 mph41.7 kmh 29.84 in1010.5 mb 0.01 in0.3 mm 0.00 in0.0 mm 0.19 in4.8 mm
11:45 AM 50.0°F10.0°C 50.0°F10.0°C 100% 19.4 mph SW31.2 kmh SW 25.9 mph41.7 kmh 29.84 in1010.5 mb 0.01 in0.3 mm 0.00 in0.0 mm 0.19 in4.8 mm
11:42 AM 49.8°F9.9°C 49.8°F9.9°C 100% 17.6 mph SW28.3 kmh SW 25.1 mph40.4 kmh 29.84 in1010.5 mb 0.01 in0.3 mm 0.00 in0.0 mm 0.19 in4.8 mm
11:39 AM 49.8°F9.9°C 49.8°F9.9°C 100% 16.3 mph SW26.2 kmh SW 21.3 mph34.3 kmh 29.85 in1010.8 mb 0.01 in0.3 mm 0.00 in0.0 mm 0.19 in4.8 mm
11:36 AM 49.8°F9.9°C 49.8°F9.9°C 100% 15.8 mph SW25.4 kmh SW 21.3 mph34.3 kmh 29.85 in1010.8 mb 0.01 in0.3 mm 0.20 in5.1 mm 0.19 in4.8 mm
11:33 AM 49.8°F9.9°C 49.8°F9.9°C 100% 16.1 mph SSW25.9 kmh SSW 21.3 mph34.3 kmh 29.84 in1010.5 mb 0.00 in0.0 mm 0.00 in0.0 mm 0.18 in4.6 mm
11:30 AM 49.8°F9.9°C 49.8°F9.9°C 100% 16.7 mph SW26.9 kmh SW 21.3 mph34.3 kmh 29.84 in1010.5 mb 0.00 in0.0 mm 0.00 in0.0 mm 0.18 in4.6 mm
11:27 AM 49.8°F9.9°C 49.8°F9.9°C 100% 16.8 mph SW27.0 kmh SW 21.3 mph34.3 kmh 29.85 in1010.8 mb 0.00 in0.0 mm 0.00 in0.0 mm 0.18 in4.6 mm
11:24 AM 50.0°F10.0°C 50.0°F10.0°C 100% 16.7 mph SW26.9 kmh SW 21.3 mph34.3 kmh 29.85 in1010.8 mb 0.00 in0.0 mm 0.00 in0.0 mm 0.18 in4.6 mm
11:21 AM 50.0°F10.0°C 50.0°F10.0°C 100% 16.7 mph SW26.9 kmh SW 21.3 mph34.3 kmh 29.85 in1010.8 mb 0.00 in0.0 mm 0.00 in0.0 mm 0.18 in4.6 mm
11:18 AM 50.0°F10.0°C 50.0°F10.0°C 100% 16.3 mph SSW26.2 kmh SSW 21.3 mph34.3 kmh 29.85 in1010.8 mb 0.00 in0.0 mm 0.00 in0.0 mm 0.18 in4.6 mm
11:15 AM 50.0°F10.0°C 50.0°F10.0°C 100% 17.1 mph SW27.5 kmh SW 28.2 mph45.4 kmh 29.85 in1010.8 mb 0.00 in0.0 mm 0.00 in0.0 mm 0.18 in4.6 mm
11:12 AM 50.0°F10.0°C 50.0°F10.0°C 100% 18.2 mph SW29.3 kmh SW 28.2 mph45.4 kmh 29.85 in1010.8 mb 0.00 in0.0 mm 0.00 in0.0 mm 0.18 in4.6 mm
11:09 AM 50.0°F10.0°C 50.0°F10.0°C 100% 19.5 mph SW31.4 kmh SW 28.2 mph45.4 kmh 29.85 in1010.8 mb 0.00 in0.0 mm 0.00 in0.0 mm 0.18 in4.6 mm
11:06 AM 50.0°F10.0°C 50.0°F10.0°C 100% 19.1 mph SW30.7 kmh SW 28.2 mph45.4 kmh 29.86 in1011.2 mb 0.00 in0.0 mm 0.00 in0.0 mm 0.18 in4.6 mm
11:03 AM 50.0°F10.0°C 50.0°F10.0°C 100% 17.3 mph SW27.8 kmh SW 23.5 mph37.8 kmh 29.86 in1011.2 mb 0.00 in0.0 mm 0.00 in0.0 mm 0.18 in4.6 mm
11:00 AM 50.0°F10.0°C 50.0°F10.0°C 100% 17.3 mph SW27.8 kmh SW 23.5 mph37.8 kmh 29.86 in1011.2 mb 0.00 in0.0 mm 0.00 in0.0 mm 0.18 in4.6 mm
10:57 AM 50.0°F10.0°C 50.0°F10.0°C 100% 17.4 mph SSW28.0 kmh SSW 23.5 mph37.8 kmh 29.86 in1011.2 mb 0.00 in0.0 mm 0.00 in0.0 mm 0.18 in4.6 mm
10:54 AM 50.0°F10.0°C 50.0°F10.0°C 100% 18.7 mph SSW30.1 kmh SSW 23.5 mph37.8 kmh 29.86 in1011.2 mb 0.00 in0.0 mm 0.00 in0.0 mm 0.18 in4.6 mm
10:51 AM 50.0°F10.0°C 50.0°F10.0°C 100% 19.0 mph S30.6 kmh S 23.5 mph37.8 kmh 29.86 in1011.2 mb 0.00 in0.0 mm 0.00 in0.0 mm 0.18 in4.6 mm
10:48 AM 50.0°F10.0°C 50.0°F10.0°C 100% 18.8 mph SSW30.3 kmh SSW 22.8 mph36.7 kmh 29.87 in1011.5 mb 0.01 in0.3 mm 0.00 in0.0 mm 0.18 in4.6 mm
10:45 AM 50.0°F10.0°C 50.0°F10.0°C 100% 18.8 mph SSW30.3 kmh SSW 22.1 mph35.6 kmh 29.87 in1011.5 mb 0.01 in0.3 mm 0.00 in0.0 mm 0.18 in4.6 mm
10:42 AM 50.0°F10.0°C 50.0°F10.0°C 100% 17.9 mph SW28.8 kmh SW 21.3 mph34.3 kmh 29.87 in1011.5 mb 0.01 in0.3 mm 0.00 in0.0 mm 0.18 in4.6 mm
10:39 AM 50.0°F10.0°C 50.0°F10.0°C 100% 17.1 mph SW27.5 kmh SW 20.6 mph33.2 kmh 29.87 in1011.5 mb 0.01 in0.3 mm 0.00 in0.0 mm 0.18 in4.6 mm
10:36 AM 50.0°F10.0°C 50.0°F10.0°C 100% 15.9 mph SW25.6 kmh SW 19.0 mph30.6 kmh 29.87 in1011.5 mb 0.01 in0.3 mm 0.00 in0.0 mm 0.18 in4.6 mm
10:33 AM 50.0°F10.0°C 50.0°F10.0°C 100% 16.8 mph SW27.0 kmh SW 21.3 mph34.3 kmh 29.88 in1011.9 mb 0.01 in0.3 mm 0.00 in0.0 mm 0.18 in4.6 mm
10:30 AM 50.0°F10.0°C 50.0°F10.0°C 100% 17.0 mph SW27.4 kmh SW 21.3 mph34.3 kmh 29.88 in1011.9 mb 0.01 in0.3 mm 0.00 in0.0 mm 0.18 in4.6 mm
10:27 AM 50.0°F10.0°C 50.0°F10.0°C 100% 18.6 mph SW29.9 kmh SW 24.4 mph39.3 kmh 29.88 in1011.9 mb 0.01 in0.3 mm 0.00 in0.0 mm 0.18 in4.6 mm
10:24 AM 50.0°F10.0°C 50.0°F10.0°C 100% 18.5 mph SW29.8 kmh SW 25.1 mph40.4 kmh 29.88 in1011.9 mb 0.01 in0.3 mm 0.00 in0.0 mm 0.18 in4.6 mm
10:21 AM 50.0°F10.0°C 50.0°F10.0°C 100% 17.8 mph SSW28.6 kmh SSW 25.1 mph40.4 kmh 29.88 in1011.9 mb 0.01 in0.3 mm 0.00 in0.0 mm 0.18 in4.6 mm
10:18 AM 49.8°F9.9°C 49.8°F9.9°C 100% 16.8 mph SSW27.0 kmh SSW 25.1 mph40.4 kmh 29.88 in1011.9 mb 0.01 in0.3 mm 0.00 in0.0 mm 0.18 in4.6 mm
10:15 AM 49.8°F9.9°C 49.8°F9.9°C 100% 17.0 mph SSW27.4 kmh SSW 22.1 mph35.6 kmh 29.88 in1011.9 mb 0.01 in0.3 mm 0.00 in0.0 mm 0.18 in4.6 mm
10:12 AM 50.0°F10.0°C 50.0°F10.0°C 100% 16.9 mph SSW27.2 kmh SSW 22.8 mph36.7 kmh 29.88 in1011.9 mb 0.01 in0.3 mm 0.00 in0.0 mm 0.18 in4.6 mm
10:09 AM 50.0°F10.0°C 50.0°F10.0°C 100% 19.5 mph SW31.4 kmh SW 28.2 mph45.4 kmh 29.89 in1012.2 mb 0.01 in0.3 mm 0.00 in0.0 mm 0.18 in4.6 mm
10:06 AM 50.0°F10.0°C 50.0°F10.0°C 100% 18.6 mph SW29.9 kmh SW 28.2 mph45.4 kmh 29.89 in1012.2 mb 0.01 in0.3 mm 0.00 in0.0 mm 0.18 in4.6 mm
10:03 AM 49.8°F9.9°C 49.8°F9.9°C 100% 19.0 mph WSW30.6 kmh WSW 28.2 mph45.4 kmh 29.89 in1012.2 mb 0.01 in0.3 mm 0.00 in0.0 mm 0.18 in4.6 mm
10:00 AM 49.8°F9.9°C 49.8°F9.9°C 100% 16.5 mph SW26.6 kmh SW 22.1 mph35.6 kmh 29.88 in1011.9 mb 0.01 in0.3 mm 0.00 in0.0 mm 0.18 in4.6 mm
09:57 AM 49.8°F9.9°C 49.8°F9.9°C 100% 16.2 mph SW26.1 kmh SW 24.4 mph39.3 kmh 29.89 in1012.2 mb 0.01 in0.3 mm 0.00 in0.0 mm 0.18 in4.6 mm
09:54 AM 49.8°F9.9°C 49.8°F9.9°C 100% 17.3 mph SW27.8 kmh SW 24.4 mph39.3 kmh 29.89 in1012.2 mb 0.01 in0.3 mm 0.00 in0.0 mm 0.18 in4.6 mm
09:51 AM 49.8°F9.9°C 49.8°F9.9°C 100% 18.2 mph SSW29.3 kmh SSW 24.4 mph39.3 kmh 29.89 in1012.2 mb 0.01 in0.3 mm 0.20 in5.1 mm 0.18 in4.6 mm
09:48 AM 49.8°F9.9°C 49.8°F9.9°C 100% 18.1 mph SSW29.1 kmh SSW 24.4 mph39.3 kmh 29.89 in1012.2 mb 0.00 in0.0 mm 0.00 in0.0 mm 0.17 in4.3 mm
09:45 AM 49.8°F9.9°C 49.8°F9.9°C 100% 18.4 mph SSW29.6 kmh SSW 24.4 mph39.3 kmh 29.89 in1012.2 mb 0.00 in0.0 mm 0.00 in0.0 mm 0.17 in4.3 mm
09:42 AM 49.8°F9.9°C 49.8°F9.9°C 100% 17.7 mph SW28.5 kmh SW 24.4 mph39.3 kmh 29.89 in1012.2 mb 0.00 in0.0 mm 0.00 in0.0 mm 0.17 in4.3 mm
09:39 AM 49.8°F9.9°C 49.8°F9.9°C 100% 19.3 mph SW31.1 kmh SW 24.4 mph39.3 kmh 29.89 in1012.2 mb 0.00 in0.0 mm 0.00 in0.0 mm 0.17 in4.3 mm
09:36 AM 49.8°F9.9°C 49.8°F9.9°C 100% 20.0 mph SW32.2 kmh SW 24.4 mph39.3 kmh 29.90 in1012.5 mb 0.00 in0.0 mm 0.00 in0.0 mm 0.17 in4.3 mm
09:33 AM 49.8°F9.9°C 49.8°F9.9°C 100% 19.2 mph SSW30.9 kmh SSW 22.1 mph35.6 kmh 29.89 in1012.2 mb 0.00 in0.0 mm 0.00 in0.0 mm 0.17 in4.3 mm
09:30 AM 49.8°F9.9°C 49.8°F9.9°C 100% 18.9 mph SSW30.4 kmh SSW 25.9 mph41.7 kmh 29.89 in1012.2 mb 0.00 in0.0 mm 0.00 in0.0 mm 0.17 in4.3 mm
09:27 AM 49.8°F9.9°C 49.8°F9.9°C 100% 17.9 mph SSW28.8 kmh SSW 25.9 mph41.7 kmh 29.89 in1012.2 mb 0.00 in0.0 mm 0.00 in0.0 mm 0.17 in4.3 mm
09:24 AM 49.8°F9.9°C 49.8°F9.9°C 100% 17.5 mph SSW28.2 kmh SSW 25.9 mph41.7 kmh 29.90 in1012.5 mb 0.00 in0.0 mm 0.00 in0.0 mm 0.17 in4.3 mm
09:21 AM 49.8°F9.9°C 49.8°F9.9°C 100% 17.6 mph SSW28.3 kmh SSW 22.1 mph35.6 kmh 29.90 in1012.5 mb 0.00 in0.0 mm 0.00 in0.0 mm 0.17 in4.3 mm
09:18 AM 49.8°F9.9°C 49.8°F9.9°C 100% 19.2 mph SW30.9 kmh SW 25.1 mph40.4 kmh 29.90 in1012.5 mb 0.00 in0.0 mm 0.00 in0.0 mm 0.17 in4.3 mm
09:15 AM 49.8°F9.9°C 49.8°F9.9°C 100% 19.7 mph SW31.7 kmh SW 25.1 mph40.4 kmh 29.90 in1012.5 mb 0.00 in0.0 mm 0.00 in0.0 mm 0.17 in4.3 mm
09:12 AM 49.8°F9.9°C 49.8°F9.9°C 100% 18.6 mph SSW29.9 kmh SSW 25.1 mph40.4 kmh 29.91 in1012.9 mb 0.00 in0.0 mm 0.00 in0.0 mm 0.17 in4.3 mm
09:09 AM 49.8°F9.9°C 49.8°F9.9°C 100% 19.2 mph SSW30.9 kmh SSW 28.2 mph45.4 kmh 29.91 in1012.9 mb 0.00 in0.0 mm 0.00 in0.0 mm 0.17 in4.3 mm
09:06 AM 49.6°F9.8°C 49.6°F9.8°C 100% 17.6 mph SW28.3 kmh SW 28.2 mph45.4 kmh 29.90 in1012.5 mb 0.00 in0.0 mm 0.00 in0.0 mm 0.17 in4.3 mm
09:03 AM 49.6°F9.8°C 49.6°F9.8°C 100% 17.5 mph SW28.2 kmh SW 28.2 mph45.4 kmh 29.91 in1012.9 mb 0.00 in0.0 mm 0.00 in0.0 mm 0.17 in4.3 mm
09:00 AM 49.6°F9.8°C 49.6°F9.8°C 100% 16.6 mph SW26.7 kmh SW 28.2 mph45.4 kmh 29.91 in1012.9 mb 0.00 in0.0 mm 0.00 in0.0 mm 0.17 in4.3 mm
08:57 AM 49.6°F9.8°C 49.6°F9.8°C 100% 14.9 mph SW24.0 kmh SW 20.6 mph33.2 kmh 29.91 in1012.9 mb 0.00 in0.0 mm 0.00 in0.0 mm 0.17 in4.3 mm
08:54 AM 49.6°F9.8°C 49.6°F9.8°C 100% 14.8 mph SSW23.8 kmh SSW 20.6 mph33.2 kmh 29.91 in1012.9 mb 0.00 in0.0 mm 0.00 in0.0 mm 0.17 in4.3 mm
08:51 AM 49.6°F9.8°C 49.6°F9.8°C 100% 13.8 mph SSW22.2 kmh SSW 19.0 mph30.6 kmh 29.91 in1012.9 mb 0.00 in0.0 mm 0.00 in0.0 mm 0.17 in4.3 mm
08:48 AM 49.6°F9.8°C 49.6°F9.8°C 100% 14.2 mph S22.9 kmh S 19.0 mph30.6 kmh 29.92 in1013.2 mb 0.00 in0.0 mm 0.00 in0.0 mm 0.17 in4.3 mm
08:45 AM 49.6°F9.8°C 49.6°F9.8°C 100% 14.6 mph S23.5 kmh S 19.0 mph30.6 kmh 29.92 in1013.2 mb 0.00 in0.0 mm 0.00 in0.0 mm 0.17 in4.3 mm
08:42 AM 49.6°F9.8°C 49.6°F9.8°C 100% 15.9 mph S25.6 kmh S 19.7 mph31.7 kmh 29.92 in1013.2 mb 0.00 in0.0 mm 0.00 in0.0 mm 0.17 in4.3 mm
08:39 AM 49.6°F9.8°C 49.6°F9.8°C 100% 15.8 mph SSW25.4 kmh SSW 19.7 mph31.7 kmh 29.92 in1013.2 mb 0.00 in0.0 mm 0.00 in0.0 mm 0.17 in4.3 mm
08:36 AM 49.6°F9.8°C 49.6°F9.8°C 100% 14.8 mph SW23.8 kmh SW 19.7 mph31.7 kmh 29.92 in1013.2 mb 0.00 in0.0 mm 0.00 in0.0 mm 0.17 in4.3 mm
08:33 AM 49.5°F9.7°C 49.5°F9.7°C 100% 14.2 mph SW22.9 kmh SW 18.3 mph29.5 kmh 29.92 in1013.2 mb 0.00 in0.0 mm 0.00 in0.0 mm 0.17 in4.3 mm
08:30 AM 49.5°F9.7°C 49.5°F9.7°C 100% 13.8 mph SW22.2 kmh SW 18.3 mph29.5 kmh 29.93 in1013.5 mb 0.00 in0.0 mm 0.00 in0.0 mm 0.17 in4.3 mm
08:27 AM 49.5°F9.7°C 49.5°F9.7°C 100% 15.3 mph SSW24.6 kmh SSW 19.0 mph30.6 kmh 29.93 in1013.5 mb 0.00 in0.0 mm 0.00 in0.0 mm 0.17 in4.3 mm
08:24 AM 49.5°F9.7°C 49.5°F9.7°C 100% 15.0 mph SSW24.1 kmh SSW 19.0 mph30.6 kmh 29.93 in1013.5 mb 0.00 in0.0 mm 0.00 in0.0 mm 0.17 in4.3 mm
08:21 AM 49.5°F9.7°C 49.5°F9.7°C 100% 14.5 mph SSW23.3 kmh SSW 19.0 mph30.6 kmh 29.93 in1013.5 mb 0.00 in0.0 mm 0.00 in0.0 mm 0.17 in4.3 mm
08:18 AM 49.5°F9.7°C 49.5°F9.7°C 100% 14.5 mph SW23.3 kmh SW 19.0 mph30.6 kmh 29.93 in1013.5 mb 0.00 in0.0 mm 0.00 in0.0 mm 0.17 in4.3 mm
08:15 AM 49.5°F9.7°C 49.5°F9.7°C 100% 14.1 mph SW22.7 kmh SW 16.8 mph27.0 kmh 29.93 in1013.5 mb 0.00 in0.0 mm 0.00 in0.0 mm 0.17 in4.3 mm
08:12 AM 49.5°F9.7°C 49.5°F9.7°C 100% 14.5 mph SSW23.3 kmh SSW 20.6 mph33.2 kmh 29.93 in1013.5 mb 0.00 in0.0 mm 0.00 in0.0 mm 0.17 in4.3 mm
08:09 AM 49.5°F9.7°C 49.5°F9.7°C 100% 15.4 mph SSW24.8 kmh SSW 20.6 mph33.2 kmh 29.93 in1013.5 mb 0.00 in0.0 mm 0.00 in0.0 mm 0.17 in4.3 mm
08:06 AM 49.5°F9.7°C 49.5°F9.7°C 100% 15.9 mph SSW25.6 kmh SSW 20.6 mph33.2 kmh 29.94 in1013.9 mb 0.00 in0.0 mm 0.00 in0.0 mm 0.17 in4.3 mm
08:03 AM 49.5°F9.7°C 49.5°F9.7°C 100% 16.3 mph SW26.2 kmh SW 20.6 mph33.2 kmh 29.94 in1013.9 mb 0.00 in0.0 mm 0.00 in0.0 mm 0.17 in4.3 mm
08:00 AM 49.5°F9.7°C 49.5°F9.7°C 100% 15.9 mph SSW25.6 kmh SSW 19.0 mph30.6 kmh 29.94 in1013.9 mb 0.00 in0.0 mm 0.00 in0.0 mm 0.17 in4.3 mm
07:57 AM 49.5°F9.7°C 49.5°F9.7°C 100% 14.2 mph SSW22.9 kmh SSW 18.3 mph29.5 kmh 29.94 in1013.9 mb 0.00 in0.0 mm 0.00 in0.0 mm 0.17 in4.3 mm
07:54 AM 49.6°F9.8°C 49.6°F9.8°C 100% 13.4 mph SSW21.6 kmh SSW 18.3 mph29.5 kmh 29.94 in1013.9 mb 0.00 in0.0 mm 0.00 in0.0 mm 0.17 in4.3 mm
07:51 AM 49.6°F9.8°C 49.6°F9.8°C 100% 12.4 mph SW20.0 kmh SW 16.8 mph27.0 kmh 29.95 in1014.2 mb 0.00 in0.0 mm 0.00 in0.0 mm 0.17 in4.3 mm
07:48 AM 49.6°F9.8°C 49.6°F9.8°C 100% 12.3 mph SW19.8 kmh SW 15.9 mph25.6 kmh 29.95 in1014.2 mb 0.00 in0.0 mm 0.00 in0.0 mm 0.17 in4.3 mm
07:45 AM 49.6°F9.8°C 49.6°F9.8°C 100% 12.5 mph SW20.1 kmh SW 15.9 mph25.6 kmh 29.95 in1014.2 mb 0.00 in0.0 mm 0.00 in0.0 mm 0.17 in4.3 mm
07:42 AM 49.8°F9.9°C 49.8°F9.9°C 100% 13.1 mph SW21.1 kmh SW 19.7 mph31.7 kmh 29.95 in1014.2 mb 0.00 in0.0 mm 0.00 in0.0 mm 0.17 in4.3 mm
07:39 AM 49.8°F9.9°C 49.8°F9.9°C 100% 14.2 mph SW22.9 kmh SW 19.7 mph31.7 kmh 29.95 in1014.2 mb 0.00 in0.0 mm 0.00 in0.0 mm 0.17 in4.3 mm
07:36 AM 49.8°F9.9°C 49.8°F9.9°C 100% 14.8 mph SW23.8 kmh SW 19.7 mph31.7 kmh 29.95 in1014.2 mb 0.00 in0.0 mm 0.00 in0.0 mm 0.17 in4.3 mm
07:33 AM 49.8°F9.9°C 49.8°F9.9°C 100% 15.7 mph SW25.3 kmh SW 24.4 mph39.3 kmh 29.95 in1014.2 mb 0.00 in0.0 mm 0.00 in0.0 mm 0.17 in4.3 mm
07:30 AM 50.0°F10.0°C 50.0°F10.0°C 100% 16.4 mph SW26.4 kmh SW 25.9 mph41.7 kmh 29.96 in1014.6 mb 0.00 in0.0 mm 0.00 in0.0 mm 0.17 in4.3 mm
07:27 AM 50.0°F10.0°C 50.0°F10.0°C 100% 16.5 mph SW26.6 kmh SW 25.9 mph41.7 kmh 29.96 in1014.6 mb 0.00 in0.0 mm 0.00 in0.0 mm 0.17 in4.3 mm
07:24 AM 50.0°F10.0°C 50.0°F10.0°C 100% 17.6 mph SW28.3 kmh SW 25.9 mph41.7 kmh 29.96 in1014.6 mb 0.00 in0.0 mm 0.00 in0.0 mm 0.17 in4.3 mm
07:21 AM 50.0°F10.0°C 50.0°F10.0°C 100% 17.3 mph SSW27.8 kmh SSW 25.9 mph41.7 kmh 29.96 in1014.6 mb 0.00 in0.0 mm 0.00 in0.0 mm 0.17 in4.3 mm
07:18 AM 49.8°F9.9°C 49.8°F9.9°C 100% 16.2 mph SSW26.1 kmh SSW 20.6 mph33.2 kmh 29.96 in1014.6 mb 0.01 in0.3 mm 0.00 in0.0 mm 0.17 in4.3 mm
07:15 AM 49.8°F9.9°C 49.8°F9.9°C 100% 16.2 mph SSW26.1 kmh SSW 20.6 mph33.2 kmh 29.97 in1014.9 mb 0.01 in0.3 mm 0.00 in0.0 mm 0.17 in4.3 mm
07:12 AM 49.8°F9.9°C 49.8°F9.9°C 100% 15.3 mph SW24.6 kmh SW 20.6 mph33.2 kmh 29.97 in1014.9 mb 0.01 in0.3 mm 0.00 in0.0 mm 0.17 in4.3 mm
07:09 AM 49.8°F9.9°C 49.8°F9.9°C 100% 14.1 mph SW22.7 kmh SW 19.0 mph30.6 kmh 29.97 in1014.9 mb 0.01 in0.3 mm 0.00 in0.0 mm 0.17 in4.3 mm
07:06 AM 49.6°F9.8°C 49.6°F9.8°C 100% 12.8 mph SW20.6 kmh SW 19.0 mph30.6 kmh 29.97 in1014.9 mb 0.01 in0.3 mm 0.00 in0.0 mm 0.17 in4.3 mm
07:03 AM 49.6°F9.8°C 49.6°F9.8°C 100% 11.1 mph SW17.9 kmh SW 16.8 mph27.0 kmh 29.97 in1014.9 mb 0.01 in0.3 mm 0.00 in0.0 mm 0.17 in4.3 mm
07:00 AM 49.5°F9.7°C 49.5°F9.7°C 100% 11.3 mph SW18.2 kmh SW 16.8 mph27.0 kmh 29.97 in1014.9 mb 0.01 in0.3 mm 0.00 in0.0 mm 0.17 in4.3 mm
06:57 AM 49.3°F9.6°C 49.3°F9.6°C 100% 10.9 mph SSW17.5 kmh SSW 13.0 mph20.9 kmh 29.98 in1015.2 mb 0.01 in0.3 mm 0.00 in0.0 mm 0.17 in4.3 mm
06:54 AM 49.3°F9.6°C 49.3°F9.6°C 100% 11.0 mph SSW17.7 kmh SSW 13.6 mph21.9 kmh 29.98 in1015.2 mb 0.01 in0.3 mm 0.00 in0.0 mm 0.17 in4.3 mm
06:51 AM 48.9°F9.4°C 48.9°F9.4°C 100% 10.7 mph S17.2 kmh S 13.6 mph21.9 kmh 29.98 in1015.2 mb 0.01 in0.3 mm 0.00 in0.0 mm 0.17 in4.3 mm
06:48 AM 48.6°F9.2°C 48.6°F9.2°C 100% 9.9 mph SSW15.9 kmh SSW 13.6 mph21.9 kmh 29.99 in1015.6 mb 0.01 in0.3 mm 0.00 in0.0 mm 0.17 in4.3 mm
06:45 AM 48.0°F8.9°C 48.0°F8.9°C 100% 8.7 mph SSW14.0 kmh SSW 11.4 mph18.3 kmh 29.99 in1015.6 mb 0.02 in0.5 mm 0.00 in0.0 mm 0.17 in4.3 mm
06:42 AM 47.8°F8.8°C 47.8°F8.8°C 100% 7.2 mph SSW11.6 kmh SSW 11.4 mph18.3 kmh 29.99 in1015.6 mb 0.02 in0.5 mm 0.00 in0.0 mm 0.17 in4.3 mm
06:39 AM 47.1°F8.4°C 47.1°F8.4°C 100% 6.0 mph S9.7 kmh S 10.7 mph17.2 kmh 29.99 in1015.6 mb 0.02 in0.5 mm 0.00 in0.0 mm 0.17 in4.3 mm
06:36 AM 46.8°F8.2°C 46.8°F8.2°C 100% 4.8 mph S7.7 kmh S 9.8 mph15.8 kmh 30.00 in1015.9 mb 0.02 in0.5 mm 0.00 in0.0 mm 0.17 in4.3 mm
06:33 AM 46.2°F7.9°C 46.2°F7.9°C 100% 4.1 mph S6.6 kmh S 9.8 mph15.8 kmh 30.01 in1016.3 mb 0.02 in0.5 mm 0.00 in0.0 mm 0.17 in4.3 mm
06:30 AM 46.2°F7.9°C 46.2°F7.9°C 100% 3.4 mph SW5.5 kmh SW 5.4 mph8.7 kmh 30.01 in1016.3 mb 0.02 in0.5 mm 0.00 in0.0 mm 0.17 in4.3 mm
06:27 AM 46.0°F7.8°C 46.0°F7.8°C 100% 4.1 mph S6.6 kmh S 7.6 mph12.2 kmh 30.01 in1016.3 mb 0.04 in1.0 mm 0.00 in0.0 mm 0.17 in4.3 mm
06:24 AM 45.9°F7.7°C 45.9°F7.7°C 100% 5.4 mph ENE8.7 kmh ENE 9.2 mph14.8 kmh 30.01 in1016.3 mb 0.04 in1.0 mm 0.00 in0.0 mm 0.17 in4.3 mm
06:21 AM 45.7°F7.6°C 45.4°F7.4°C 99% 5.7 mph ENE9.2 kmh ENE 9.2 mph14.8 kmh 30.02 in1016.6 mb 0.04 in1.0 mm 0.40 in10.2 mm 0.17 in4.3 mm
06:18 AM 45.3°F7.4°C 45.1°F7.3°C 99% 5.5 mph NE8.9 kmh NE 9.2 mph14.8 kmh 30.02 in1016.6 mb 0.02 in0.5 mm 0.00 in0.0 mm 0.15 in3.8 mm
06:15 AM 45.3°F7.4°C 45.1°F7.3°C 99% 4.2 mph NNE6.8 kmh NNE 6.9 mph11.1 kmh 30.02 in1016.6 mb 0.02 in0.5 mm 0.00 in0.0 mm 0.15 in3.8 mm
06:12 AM 45.1°F7.3°C 44.9°F7.2°C 99% 4.7 mph E7.6 kmh E 7.6 mph12.2 kmh 30.02 in1016.6 mb 0.02 in0.5 mm 0.00 in0.0 mm 0.15 in3.8 mm
06:09 AM 45.1°F7.3°C 44.9°F7.2°C 99% 4.6 mph SE7.4 kmh SE 7.6 mph12.2 kmh 30.03 in1016.9 mb 0.02 in0.5 mm 0.00 in0.0 mm 0.15 in3.8 mm
06:06 AM 45.0°F7.2°C 44.7°F7.1°C 99% 5.0 mph E8.0 kmh E 7.6 mph12.2 kmh 30.04 in1017.3 mb 0.04 in1.0 mm 0.00 in0.0 mm 0.15 in3.8 mm
06:03 AM 45.0°F7.2°C 44.7°F7.1°C 99% 5.3 mph E8.5 kmh E 9.2 mph14.8 kmh 30.04 in1017.3 mb 0.04 in1.0 mm 0.00 in0.0 mm 0.15 in3.8 mm
06:00 AM 45.0°F7.2°C 44.7°F7.1°C 99% 5.1 mph ENE8.2 kmh ENE 9.2 mph14.8 kmh 30.04 in1017.3 mb 0.04 in1.0 mm 0.00 in0.0 mm 0.15 in3.8 mm
05:57 AM 45.0°F7.2°C 44.7°F7.1°C 99% 5.3 mph E8.5 kmh E 9.2 mph14.8 kmh 30.05 in1017.6 mb 0.04 in1.0 mm 0.00 in0.0 mm 0.15 in3.8 mm
05:54 AM 45.0°F7.2°C 44.7°F7.1°C 99% 5.2 mph E8.4 kmh E 9.2 mph14.8 kmh 30.04 in1017.3 mb 0.04 in1.0 mm 0.00 in0.0 mm 0.15 in3.8 mm
05:51 AM 45.0°F7.2°C 44.7°F7.1°C 99% 5.1 mph ESE8.2 kmh ESE 9.2 mph14.8 kmh 30.05 in1017.6 mb 0.04 in1.0 mm 0.00 in0.0 mm 0.15 in3.8 mm
05:48 AM 45.0°F7.2°C 44.7°F7.1°C 99% 5.6 mph E9.0 kmh E 9.2 mph14.8 kmh 30.06 in1017.9 mb 0.05 in1.3 mm 0.20 in5.1 mm 0.15 in3.8 mm
05:45 AM 45.0°F7.2°C 44.7°F7.1°C 99% 4.8 mph E7.7 kmh E 7.6 mph12.2 kmh 30.06 in1017.9 mb 0.04 in1.0 mm 0.00 in0.0 mm 0.14 in3.6 mm
05:42 AM 45.0°F7.2°C 44.7°F7.1°C 99% 5.3 mph E8.5 kmh E 8.3 mph13.4 kmh 30.06 in1017.9 mb 0.04 in1.0 mm 0.00 in0.0 mm 0.14 in3.6 mm
05:39 AM 45.0°F7.2°C 44.7°F7.1°C 99% 6.2 mph E10.0 kmh E 8.3 mph13.4 kmh 30.06 in1017.9 mb 0.04 in1.0 mm 0.00 in0.0 mm 0.14 in3.6 mm
05:36 AM 45.0°F7.2°C 44.4°F6.9°C 98% 5.9 mph E9.5 kmh E 8.3 mph13.4 kmh 30.06 in1017.9 mb 0.04 in1.0 mm 0.00 in0.0 mm 0.14 in3.6 mm
05:33 AM 44.8°F7.1°C 44.3°F6.8°C 98% 6.4 mph E10.3 kmh E 8.3 mph13.4 kmh 30.06 in1017.9 mb 0.04 in1.0 mm 0.00 in0.0 mm 0.14 in3.6 mm
05:30 AM 44.8°F7.1°C 44.3°F6.8°C 98% 5.5 mph ESE8.9 kmh ESE 8.3 mph13.4 kmh 30.06 in1017.9 mb 0.04 in1.0 mm 0.40 in10.2 mm 0.14 in3.6 mm
05:27 AM 44.8°F7.1°C 44.3°F6.8°C 98% 5.5 mph E8.9 kmh E 8.3 mph13.4 kmh 30.07 in1018.3 mb 0.02 in0.5 mm 0.00 in0.0 mm 0.13 in3.3 mm
05:24 AM 44.6°F7.0°C 44.1°F6.7°C 98% 5.0 mph E8.0 kmh E 9.8 mph15.8 kmh 30.07 in1018.3 mb 0.04 in1.0 mm 0.00 in0.0 mm 0.13 in3.3 mm
05:21 AM 44.6°F7.0°C 44.1°F6.7°C 98% 5.5 mph E8.9 kmh E 9.8 mph15.8 kmh 30.07 in1018.3 mb 0.04 in1.0 mm 0.00 in0.0 mm 0.13 in3.3 mm
05:18 AM 44.4°F6.9°C 44.2°F6.8°C 99% 5.2 mph ENE8.4 kmh ENE 9.8 mph15.8 kmh 30.08 in1018.6 mb 0.04 in1.0 mm 0.00 in0.0 mm 0.13 in3.3 mm
05:15 AM 44.4°F6.9°C 44.2°F6.8°C 99% 5.1 mph N8.2 kmh N 9.8 mph15.8 kmh 30.08 in1018.6 mb 0.05 in1.3 mm 0.00 in0.0 mm 0.13 in3.3 mm
05:12 AM 44.4°F6.9°C 44.2°F6.8°C 99% 4.9 mph NE7.9 kmh NE 9.2 mph14.8 kmh 30.08 in1018.6 mb 0.05 in1.3 mm 0.00 in0.0 mm 0.13 in3.3 mm
05:09 AM 44.2°F6.8°C 44.0°F6.7°C 99% 5.2 mph ENE8.4 kmh ENE 9.2 mph14.8 kmh 30.09 in1019.0 mb 0.05 in1.3 mm 0.00 in0.0 mm 0.13 in3.3 mm
05:06 AM 44.2°F6.8°C 44.0°F6.7°C 99% 5.6 mph E9.0 kmh E 9.2 mph14.8 kmh 30.09 in1019.0 mb 0.05 in1.3 mm 0.00 in0.0 mm 0.12 in3.0 mm
05:03 AM 44.2°F6.8°C 44.0°F6.7°C 99% 5.7 mph E9.2 kmh E 9.8 mph15.8 kmh 30.09 in1019.0 mb 0.06 in1.5 mm 0.00 in0.0 mm 0.12 in3.0 mm
05:00 AM 44.2°F6.8°C 43.7°F6.5°C 98% 6.2 mph E10.0 kmh E 12.1 mph19.5 kmh 30.09 in1019.0 mb 0.07 in1.8 mm 0.00 in0.0 mm 0.12 in3.0 mm
04:57 AM 44.2°F6.8°C 43.7°F6.5°C 98% 6.1 mph E9.8 kmh E 12.1 mph19.5 kmh 30.09 in1019.0 mb 0.07 in1.8 mm 0.00 in0.0 mm 0.12 in3.0 mm
04:54 AM 44.2°F6.8°C 43.7°F6.5°C 98% 5.9 mph E9.5 kmh E 12.1 mph19.5 kmh 30.09 in1019.0 mb 0.08 in2.0 mm 0.00 in0.0 mm 0.12 in3.0 mm
04:51 AM 44.2°F6.8°C 43.7°F6.5°C 98% 6.0 mph E9.7 kmh E 10.7 mph17.2 kmh 30.10 in1019.3 mb 0.08 in2.0 mm 0.20 in5.1 mm 0.12 in3.0 mm
04:48 AM 44.2°F6.8°C 43.7°F6.5°C 98% 6.3 mph ESE10.1 kmh ESE 9.8 mph15.8 kmh 30.10 in1019.3 mb 0.07 in1.8 mm 0.00 in0.0 mm 0.11 in2.8 mm
04:45 AM 44.2°F6.8°C 43.7°F6.5°C 98% 6.5 mph ESE10.5 kmh ESE 9.8 mph15.8 kmh 30.11 in1019.6 mb 0.07 in1.8 mm 0.00 in0.0 mm 0.11 in2.8 mm
04:42 AM 44.2°F6.8°C 43.7°F6.5°C 98% 6.3 mph SE10.1 kmh SE 9.2 mph14.8 kmh 30.11 in1019.6 mb 0.08 in2.0 mm 0.00 in0.0 mm 0.11 in2.8 mm
04:39 AM 44.2°F6.8°C 43.7°F6.5°C 98% 5.9 mph ESE9.5 kmh ESE 9.2 mph14.8 kmh 30.10 in1019.3 mb 0.08 in2.0 mm 0.00 in0.0 mm 0.11 in2.8 mm
04:36 AM 44.2°F6.8°C 43.7°F6.5°C 98% 6.2 mph ESE10.0 kmh ESE 11.4 mph18.3 kmh 30.11 in1019.6 mb 0.08 in2.0 mm 0.00 in0.0 mm 0.11 in2.8 mm
04:33 AM 44.2°F6.8°C 43.7°F6.5°C 98% 6.4 mph ESE10.3 kmh ESE 11.4 mph18.3 kmh 30.11 in1019.6 mb 0.08 in2.0 mm 0.00 in0.0 mm 0.11 in2.8 mm
04:30 AM 44.2°F6.8°C 43.7°F6.5°C 98% 6.1 mph ESE9.8 kmh ESE 11.4 mph18.3 kmh 30.12 in1020.0 mb 0.08 in2.0 mm 0.00 in0.0 mm 0.11 in2.8 mm
04:27 AM 44.2°F6.8°C 43.4°F6.3°C 97% 5.9 mph E9.5 kmh E 8.3 mph13.4 kmh 30.11 in1019.6 mb 0.08 in2.0 mm 0.20 in5.1 mm 0.11 in2.8 mm
04:24 AM 44.2°F6.8°C 43.4°F6.3°C 97% 6.2 mph ENE10.0 kmh ENE 9.2 mph14.8 kmh 30.11 in1019.6 mb 0.07 in1.8 mm 0.00 in0.0 mm 0.09 in2.3 mm
04:21 AM 44.2°F6.8°C 43.4°F6.3°C 97% 6.0 mph ENE9.7 kmh ENE 9.2 mph14.8 kmh 30.12 in1020.0 mb 0.07 in1.8 mm 0.00 in0.0 mm 0.09 in2.3 mm
04:18 AM 44.2°F6.8°C 43.4°F6.3°C 97% 5.7 mph ENE9.2 kmh ENE 9.2 mph14.8 kmh 30.12 in1020.0 mb 0.07 in1.8 mm 0.20 in5.1 mm 0.09 in2.3 mm
04:15 AM 44.1°F6.7°C 43.3°F6.3°C 97% 4.5 mph E7.2 kmh E 8.3 mph13.4 kmh 30.12 in1020.0 mb 0.06 in1.5 mm 0.00 in0.0 mm 0.08 in2.0 mm
04:12 AM 44.1°F6.7°C 43.3°F6.3°C 97% 4.3 mph E6.9 kmh E 6.0 mph9.7 kmh 30.13 in1020.3 mb 0.06 in1.5 mm 0.00 in0.0 mm 0.08 in2.0 mm
04:09 AM 44.1°F6.7°C 43.3°F6.3°C 97% 4.7 mph E7.6 kmh E 6.0 mph9.7 kmh 30.14 in1020.7 mb 0.06 in1.5 mm 0.20 in5.1 mm 0.08 in2.0 mm
04:06 AM 44.1°F6.7°C 43.0°F6.1°C 96% 5.3 mph E8.5 kmh E 9.2 mph14.8 kmh 30.14 in1020.7 mb 0.05 in1.3 mm 0.20 in5.1 mm 0.07 in1.8 mm
04:03 AM 44.1°F6.7°C 43.0°F6.1°C 96% 5.5 mph ESE8.9 kmh ESE 9.2 mph14.8 kmh 30.13 in1020.3 mb 0.04 in1.0 mm 0.40 in10.2 mm 0.06 in1.5 mm
04:00 AM 44.2°F6.8°C 43.2°F6.2°C 96% 5.9 mph E9.5 kmh E 9.2 mph14.8 kmh 30.14 in1020.7 mb 0.02 in0.5 mm 0.00 in0.0 mm 0.05 in1.3 mm
03:57 AM 44.2°F6.8°C 43.2°F6.2°C 96% 5.9 mph E9.5 kmh E 9.2 mph14.8 kmh 30.14 in1020.7 mb 0.02 in0.5 mm 0.20 in5.1 mm 0.05 in1.3 mm
03:54 AM 44.2°F6.8°C 43.2°F6.2°C 96% 5.4 mph ENE8.7 kmh ENE 8.3 mph13.4 kmh 30.15 in1021.0 mb 0.01 in0.3 mm 0.00 in0.0 mm 0.04 in1.0 mm
03:51 AM 44.2°F6.8°C 43.2°F6.2°C 96% 4.9 mph E7.9 kmh E 8.3 mph13.4 kmh 30.15 in1021.0 mb 0.01 in0.3 mm 0.00 in0.0 mm 0.04 in1.0 mm
03:48 AM 44.2°F6.8°C 43.2°F6.2°C 96% 5.5 mph E8.9 kmh E 10.7 mph17.2 kmh 30.15 in1021.0 mb 0.01 in0.3 mm 0.00 in0.0 mm 0.04 in1.0 mm
03:45 AM 44.2°F6.8°C 43.2°F6.2°C 96% 5.4 mph E8.7 kmh E 10.7 mph17.2 kmh 30.16 in1021.3 mb 0.01 in0.3 mm 0.20 in5.1 mm 0.04 in1.0 mm
03:42 AM 44.2°F6.8°C 42.9°F6.1°C 95% 5.5 mph E8.9 kmh E 10.7 mph17.2 kmh 30.16 in1021.3 mb 0.00 in0.0 mm 0.00 in0.0 mm 0.02 in0.5 mm
03:39 AM 44.2°F6.8°C 42.9°F6.1°C 95% 5.3 mph E8.5 kmh E 7.6 mph12.2 kmh 30.15 in1021.0 mb 0.00 in0.0 mm 0.00 in0.0 mm 0.02 in0.5 mm
03:36 AM 44.2°F6.8°C 42.9°F6.1°C 95% 5.1 mph E8.2 kmh E 7.6 mph12.2 kmh 30.16 in1021.3 mb 0.00 in0.0 mm 0.00 in0.0 mm 0.02 in0.5 mm
03:33 AM 44.4°F6.9°C 43.1°F6.2°C 95% 4.8 mph E7.7 kmh E 7.6 mph12.2 kmh 30.16 in1021.3 mb 0.00 in0.0 mm 0.00 in0.0 mm 0.02 in0.5 mm
03:30 AM 44.2°F6.8°C 42.9°F6.1°C 95% 4.1 mph SE6.6 kmh SE 7.6 mph12.2 kmh 30.16 in1021.3 mb 0.00 in0.0 mm 0.00 in0.0 mm 0.02 in0.5 mm
03:27 AM 44.2°F6.8°C 42.9°F6.1°C 95% 3.5 mph S5.6 kmh S 6.0 mph9.7 kmh 30.16 in1021.3 mb 0.00 in0.0 mm 0.00 in0.0 mm 0.02 in0.5 mm
03:24 AM 44.2°F6.8°C 42.9°F6.1°C 95% 2.9 mph SSW4.7 kmh SSW 3.8 mph6.1 kmh 30.16 in1021.3 mb 0.00 in0.0 mm 0.00 in0.0 mm 0.02 in0.5 mm
03:21 AM 44.2°F6.8°C 42.6°F5.9°C 94% 3.0 mph WSW4.8 kmh WSW 5.4 mph8.7 kmh 30.16 in1021.3 mb 0.01 in0.3 mm 0.00 in0.0 mm 0.02 in0.5 mm
03:18 AM 44.2°F6.8°C 42.6°F5.9°C 94% 3.6 mph W5.8 kmh W 5.4 mph8.7 kmh 30.17 in1021.7 mb 0.01 in0.3 mm 0.00 in0.0 mm 0.02 in0.5 mm
03:15 AM 44.2°F6.8°C 42.6°F5.9°C 94% 3.8 mph SW6.1 kmh SW 5.4 mph8.7 kmh 30.16 in1021.3 mb 0.01 in0.3 mm 0.00 in0.0 mm 0.02 in0.5 mm
03:12 AM 44.2°F6.8°C 42.3°F5.7°C 93% 3.9 mph S6.3 kmh S 5.4 mph8.7 kmh 30.16 in1021.3 mb 0.01 in0.3 mm 0.00 in0.0 mm 0.02 in0.5 mm
03:09 AM 44.2°F6.8°C 42.3°F5.7°C 93% 3.3 mph SW5.3 kmh SW 5.4 mph8.7 kmh 30.17 in1021.7 mb 0.01 in0.3 mm 0.00 in0.0 mm 0.02 in0.5 mm
03:06 AM 44.2°F6.8°C 42.3°F5.7°C 93% 3.1 mph SW5.0 kmh SW 5.4 mph8.7 kmh 30.17 in1021.7 mb 0.01 in0.3 mm 0.00 in0.0 mm 0.02 in0.5 mm
03:03 AM 44.2°F6.8°C 42.3°F5.7°C 93% 2.7 mph SW4.3 kmh SW 5.4 mph8.7 kmh 30.18 in1022.0 mb 0.01 in0.3 mm 0.00 in0.0 mm 0.02 in0.5 mm
03:00 AM 44.2°F6.8°C 42.1°F5.6°C 92% 2.3 mph SW3.7 kmh SW 3.8 mph6.1 kmh 30.18 in1022.0 mb 0.01 in0.3 mm 0.00 in0.0 mm 0.02 in0.5 mm
02:57 AM 44.2°F6.8°C 42.1°F5.6°C 92% 2.1 mph SW3.4 kmh SW 3.1 mph5.0 kmh 30.18 in1022.0 mb 0.01 in0.3 mm 0.00 in0.0 mm 0.02 in0.5 mm
02:54 AM 44.2°F6.8°C 42.1°F5.6°C 92% 1.9 mph SW3.1 kmh SW 2.2 mph3.5 kmh 30.19 in1022.4 mb 0.01 in0.3 mm 0.00 in0.0 mm 0.02 in0.5 mm
02:51 AM 44.2°F6.8°C 42.1°F5.6°C 92% 1.8 mph SSW2.9 kmh SSW 2.2 mph3.5 kmh 30.19 in1022.4 mb 0.01 in0.3 mm 0.00 in0.0 mm 0.02 in0.5 mm
02:48 AM 44.2°F6.8°C 41.8°F5.4°C 91% 1.5 mph S2.4 kmh S 2.2 mph3.5 kmh 30.20 in1022.7 mb 0.01 in0.3 mm 0.00 in0.0 mm 0.02 in0.5 mm
02:45 AM 44.2°F6.8°C 41.8°F5.4°C 91% 1.3 mph S2.1 kmh S 2.2 mph3.5 kmh 30.20 in1022.7 mb 0.01 in0.3 mm 0.00 in0.0 mm 0.02 in0.5 mm
02:42 AM 44.2°F6.8°C 41.8°F5.4°C 91% 1.4 mph SSE2.3 kmh SSE 3.8 mph6.1 kmh 30.20 in1022.7 mb 0.01 in0.3 mm 0.00 in0.0 mm 0.02 in0.5 mm
02:39 AM 44.2°F6.8°C 41.8°F5.4°C 91% 1.7 mph SE2.7 kmh SE 3.8 mph6.1 kmh 30.20 in1022.7 mb 0.01 in0.3 mm 0.00 in0.0 mm 0.02 in0.5 mm
02:36 AM 44.2°F6.8°C 41.8°F5.4°C 91% 1.7 mph SSE2.7 kmh SSE 3.8 mph6.1 kmh 30.20 in1022.7 mb 0.01 in0.3 mm 0.00 in0.0 mm 0.02 in0.5 mm
02:33 AM 44.2°F6.8°C 41.5°F5.3°C 90% 1.6 mph S2.6 kmh S 3.1 mph5.0 kmh 30.20 in1022.7 mb 0.01 in0.3 mm 0.00 in0.0 mm 0.02 in0.5 mm
02:30 AM 44.2°F6.8°C 41.5°F5.3°C 90% 1.5 mph S2.4 kmh S 3.1 mph5.0 kmh 30.20 in1022.7 mb 0.01 in0.3 mm 0.00 in0.0 mm 0.02 in0.5 mm
02:27 AM 44.2°F6.8°C 41.5°F5.3°C 90% 1.6 mph SW2.6 kmh SW 3.1 mph5.0 kmh 30.20 in1022.7 mb 0.01 in0.3 mm 0.00 in0.0 mm 0.02 in0.5 mm
02:24 AM 44.2°F6.8°C 41.5°F5.3°C 90% 1.6 mph SW2.6 kmh SW 3.1 mph5.0 kmh 30.21 in1023.0 mb 0.01 in0.3 mm 0.20 in5.1 mm 0.02 in0.5 mm
02:21 AM 44.2°F6.8°C 41.2°F5.1°C 89% 1.5 mph SSW2.4 kmh SSW 3.1 mph5.0 kmh 30.21 in1023.0 mb 0.00 in0.0 mm 0.00 in0.0 mm 0.01 in0.3 mm
02:18 AM 44.2°F6.8°C 41.2°F5.1°C 89% 1.8 mph SSE2.9 kmh SSE 3.1 mph5.0 kmh 30.22 in1023.4 mb 0.00 in0.0 mm 0.00 in0.0 mm 0.01 in0.3 mm
02:15 AM 44.2°F6.8°C 41.2°F5.1°C 89% 2.4 mph SSW3.9 kmh SSW 4.5 mph7.2 kmh 30.22 in1023.4 mb 0.00 in0.0 mm 0.00 in0.0 mm 0.01 in0.3 mm
02:12 AM 44.2°F6.8°C 41.2°F5.1°C 89% 3.1 mph SSW5.0 kmh SSW 4.5 mph7.2 kmh 30.23 in1023.7 mb 0.00 in0.0 mm 0.00 in0.0 mm 0.01 in0.3 mm
02:09 AM 44.4°F6.9°C 41.1°F5.1°C 88% 3.6 mph SSW5.8 kmh SSW 5.4 mph8.7 kmh 30.23 in1023.7 mb 0.00 in0.0 mm 0.00 in0.0 mm 0.01 in0.3 mm
02:06 AM 44.4°F6.9°C 40.8°F4.9°C 87% 3.7 mph SSW6.0 kmh SSW 5.4 mph8.7 kmh 30.23 in1023.7 mb 0.00 in0.0 mm 0.00 in0.0 mm 0.01 in0.3 mm
02:03 AM 44.6°F7.0°C 40.7°F4.8°C 86% 3.5 mph SSW5.6 kmh SSW 5.4 mph8.7 kmh 30.23 in1023.7 mb 0.00 in0.0 mm 0.00 in0.0 mm 0.01 in0.3 mm
02:00 AM 44.8°F7.1°C 40.6°F4.8°C 85% 3.5 mph SSW5.6 kmh SSW 5.4 mph8.7 kmh 30.23 in1023.7 mb 0.00 in0.0 mm 0.00 in0.0 mm 0.01 in0.3 mm
01:57 AM 44.8°F7.1°C 40.2°F4.6°C 84% 4.1 mph S6.6 kmh S 6.0 mph9.7 kmh 30.24 in1024.0 mb 0.00 in0.0 mm 0.00 in0.0 mm 0.01 in0.3 mm
01:54 AM 44.8°F7.1°C 40.2°F4.6°C 84% 4.4 mph S7.1 kmh S 6.0 mph9.7 kmh 30.24 in1024.0 mb 0.00 in0.0 mm 0.00 in0.0 mm 0.01 in0.3 mm
01:51 AM 45.0°F7.2°C 40.1°F4.5°C 83% 4.7 mph S7.6 kmh S 6.0 mph9.7 kmh 30.23 in1023.7 mb 0.00 in0.0 mm 0.00 in0.0 mm 0.01 in0.3 mm
01:48 AM 45.0°F7.2°C 40.1°F4.5°C 83% 5.6 mph SSE9.0 kmh SSE 8.3 mph13.4 kmh 30.24 in1024.0 mb 0.00 in0.0 mm 0.00 in0.0 mm 0.01 in0.3 mm
01:45 AM 45.0°F7.2°C 40.1°F4.5°C 83% 6.3 mph S10.1 kmh S 8.3 mph13.4 kmh 30.25 in1024.4 mb 0.01 in0.3 mm 0.00 in0.0 mm 0.01 in0.3 mm
01:42 AM 45.1°F7.3°C 40.3°F4.6°C 83% 7.8 mph S12.6 kmh S 11.4 mph18.3 kmh 30.24 in1024.0 mb 0.01 in0.3 mm 0.00 in0.0 mm 0.01 in0.3 mm
01:39 AM 45.3°F7.4°C 40.5°F4.7°C 83% 8.0 mph SSW12.9 kmh SSW 11.4 mph18.3 kmh 30.25 in1024.4 mb 0.01 in0.3 mm 0.00 in0.0 mm 0.01 in0.3 mm
01:36 AM 45.3°F7.4°C 40.5°F4.7°C 83% 7.8 mph SSW12.6 kmh SSW 11.4 mph18.3 kmh 30.25 in1024.4 mb 0.01 in0.3 mm 0.00 in0.0 mm 0.01 in0.3 mm
01:33 AM 45.3°F7.4°C 40.5°F4.7°C 83% 6.8 mph SSW10.9 kmh SSW 11.4 mph18.3 kmh 30.25 in1024.4 mb 0.01 in0.3 mm 0.00 in0.0 mm 0.01 in0.3 mm
01:30 AM 45.3°F7.4°C 40.5°F4.7°C 83% 5.4 mph SSW8.7 kmh SSW 9.2 mph14.8 kmh 30.25 in1024.4 mb 0.01 in0.3 mm 0.00 in0.0 mm 0.01 in0.3 mm
01:27 AM 45.1°F7.3°C 40.3°F4.6°C 83% 4.3 mph SSW6.9 kmh SSW 6.0 mph9.7 kmh 30.25 in1024.4 mb 0.01 in0.3 mm 0.00 in0.0 mm 0.01 in0.3 mm
01:24 AM 45.1°F7.3°C 40.3°F4.6°C 83% 3.7 mph SSW6.0 kmh SSW 5.4 mph8.7 kmh 30.25 in1024.4 mb 0.01 in0.3 mm 0.00 in0.0 mm 0.01 in0.3 mm
01:21 AM 45.0°F7.2°C 40.1°F4.5°C 83% 3.5 mph SSW5.6 kmh SSW 5.4 mph8.7 kmh 30.25 in1024.4 mb 0.01 in0.3 mm 0.00 in0.0 mm 0.01 in0.3 mm
01:18 AM 45.0°F7.2°C 39.8°F4.3°C 82% 2.2 mph SW3.5 kmh SW 5.4 mph8.7 kmh 30.25 in1024.4 mb 0.01 in0.3 mm 0.00 in0.0 mm 0.01 in0.3 mm
01:15 AM 45.0°F7.2°C 39.8°F4.3°C 82% 2.0 mph S3.2 kmh S 4.5 mph7.2 kmh 30.24 in1024.0 mb 0.01 in0.3 mm 0.00 in0.0 mm 0.01 in0.3 mm
01:12 AM 45.0°F7.2°C 39.5°F4.2°C 81% 1.9 mph E3.1 kmh E 3.1 mph5.0 kmh 30.24 in1024.0 mb 0.01 in0.3 mm 0.00 in0.0 mm 0.01 in0.3 mm
01:09 AM 45.0°F7.2°C 39.5°F4.2°C 81% 2.1 mph E3.4 kmh E 3.1 mph5.0 kmh 30.24 in1024.0 mb 0.01 in0.3 mm 0.00 in0.0 mm 0.01 in0.3 mm
01:06 AM 45.0°F7.2°C 39.5°F4.2°C 81% 2.1 mph E3.4 kmh E 3.1 mph5.0 kmh 30.24 in1024.0 mb 0.01 in0.3 mm 0.00 in0.0 mm 0.01 in0.3 mm
01:03 AM 45.0°F7.2°C 39.5°F4.2°C 81% 1.8 mph E2.9 kmh E 3.1 mph5.0 kmh 30.24 in1024.0 mb 0.01 in0.3 mm 0.00 in0.0 mm 0.01 in0.3 mm
01:00 AM 45.0°F7.2°C 39.2°F4.0°C 80% 1.7 mph E2.7 kmh E 2.2 mph3.5 kmh 30.24 in1024.0 mb 0.01 in0.3 mm 0.00 in0.0 mm 0.01 in0.3 mm
12:57 AM 45.1°F7.3°C 39.3°F4.1°C 80% 1.6 mph E2.6 kmh E 2.2 mph3.5 kmh 30.24 in1024.0 mb 0.01 in0.3 mm 0.00 in0.0 mm 0.01 in0.3 mm
12:54 AM 45.1°F7.3°C 39.3°F4.1°C 80% 1.4 mph NE2.3 kmh NE 3.1 mph5.0 kmh 30.24 in1024.0 mb 0.01 in0.3 mm 0.00 in0.0 mm 0.01 in0.3 mm
12:51 AM 45.1°F7.3°C 39.3°F4.1°C 80% 1.5 mph W2.4 kmh W 3.1 mph5.0 kmh 30.25 in1024.4 mb 0.01 in0.3 mm 0.00 in0.0 mm 0.01 in0.3 mm
12:48 AM 45.1°F7.3°C 39.0°F3.9°C 79% 1.3 mph WSW2.1 kmh WSW 3.1 mph5.0 kmh 30.24 in1024.0 mb 0.01 in0.3 mm 0.20 in5.1 mm 0.01 in0.3 mm
12:45 AM 45.1°F7.3°C 39.0°F3.9°C 79% 1.2 mph W1.9 kmh W 3.1 mph5.0 kmh 30.25 in1024.4 mb 0.00 in0.0 mm 0.00 in0.0 mm 0.00 in0.0 mm
12:42 AM 45.1°F7.3°C 39.0°F3.9°C 79% 0.5 mph WNW0.8 kmh WNW 2.2 mph3.5 kmh 30.25 in1024.4 mb 0.00 in0.0 mm 0.00 in0.0 mm 0.00 in0.0 mm
12:39 AM 45.1°F7.3°C 39.0°F3.9°C 79% 0.1 mph NE0.2 kmh NE 0.7 mph1.1 kmh 30.25 in1024.4 mb 0.00 in0.0 mm 0.00 in0.0 mm 0.00 in0.0 mm
12:36 AM 45.1°F7.3°C 39.0°F3.9°C 79% 0.1 mph NE0.2 kmh NE 0.7 mph1.1 kmh 30.25 in1024.4 mb 0.00 in0.0 mm 0.00 in0.0 mm 0.00 in0.0 mm
12:33 AM 45.1°F7.3°C 39.0°F3.9°C 79% 0.1 mph NE0.2 kmh NE 0.7 mph1.1 kmh 30.25 in1024.4 mb 0.00 in0.0 mm 0.00 in0.0 mm 0.00 in0.0 mm
12:30 AM 45.1°F7.3°C 39.0°F3.9°C 79% 0.1 mph SE0.2 kmh SE 0.7 mph1.1 kmh 30.25 in1024.4 mb 0.00 in0.0 mm 0.00 in0.0 mm 0.00 in0.0 mm
12:27 AM 45.1°F7.3°C 38.7°F3.7°C 78% 0.5 mph ESE0.8 kmh ESE 1.6 mph2.6 kmh 30.25 in1024.4 mb 0.00 in0.0 mm 0.00 in0.0 mm 0.00 in0.0 mm
12:24 AM 45.1°F7.3°C 38.7°F3.7°C 78% 0.6 mph SE1.0 kmh SE 1.6 mph2.6 kmh 30.25 in1024.4 mb 0.00 in0.0 mm 0.00 in0.0 mm 0.00 in0.0 mm
12:21 AM 45.1°F7.3°C 38.7°F3.7°C 78% 0.8 mph SE1.3 kmh SE 1.6 mph2.6 kmh 30.25 in1024.4 mb 0.00 in0.0 mm 0.00 in0.0 mm 0.00 in0.0 mm
12:18 AM 45.1°F7.3°C 38.7°F3.7°C 78% 0.7 mph SE1.1 kmh SE 1.6 mph2.6 kmh 30.25 in1024.4 mb 0.00 in0.0 mm 0.00 in0.0 mm 0.00 in0.0 mm
12:15 AM 45.1°F7.3°C 38.7°F3.7°C 78% 0.8 mph SE1.3 kmh SE 1.6 mph2.6 kmh 30.25 in1024.4 mb 0.00 in0.0 mm 0.00 in0.0 mm 0.00 in0.0 mm
12:12 AM 45.1°F7.3°C 38.7°F3.7°C 78% 0.7 mph SE1.1 kmh SE 1.6 mph2.6 kmh 30.26 in1024.7 mb 0.00 in0.0 mm 0.00 in0.0 mm 0.00 in0.0 mm
12:09 AM 45.1°F7.3°C 38.7°F3.7°C 78% 0.4 mph SE0.6 kmh SE 1.6 mph2.6 kmh 30.25 in1024.4 mb 0.00 in0.0 mm 0.00 in0.0 mm 0.00 in0.0 mm
12:06 AM 45.1°F7.3°C 38.7°F3.7°C 78% 0.1 mph SE0.2 kmh SE 1.6 mph2.6 kmh 30.25 in1024.4 mb 0.00 in0.0 mm 0.00 in0.0 mm 0.00 in0.0 mm
12:03 AM 45.1°F7.3°C 38.7°F3.7°C 78% Calm Calm 0.7 mph1.1 kmh 30.25 in1024.4 mb 0.00 in0.0 mm 0.00 in0.0 mm 0.00 in0.0 mm
12:00 AM 45.1°F7.3°C 38.7°F3.7°C 78% 0.3 mph E0.5 kmh E 0.7 mph1.1 kmh 30.25 in1024.4 mb 0.00 in0.0 mm 0.00 in0.0 mm 0.00 in0.0 mm